Darstellungsparameter: Aktuell verwendete Einstellungen:
Skalierung der Graphiken ... ?
xyx+y,   Skalierungsfaktor:      Skalierung: Modus: x, Faktor: 1
Darstellungszeitraum ... ?
Vom - - bis: - -   Zeitraum: 21.05.2018 - 27.05.2018
Min/Max/Avg-Anzeige ... ?
Zeige MMA aktuell
Zeige MMA Monat
Zeige MMA alles
Zeige --A aktuell
Zeige --A Monat
Zeige --A alles
Keine MMA-Anzeige
MMA:
Keine MMA-Graphiken
MMA-Basis: 21.05.2018 - 27.05.2018
Quicknavigation für Darstellung... ?
Tage:      1T, 2T, 3T, 5T -1T -2T -3T -5T +1T +2T +3T +5T
Wochen: 1W, 2W, 3W -1W -2W -3W +1W +2W +3W
Monate: 1M, 3M, 6M -1M -3M -6M +1M +3M +6M
Jahre:    1J, 3J, 5J, 10J -1J -3J -5J -10J +1J +3J +5J +10J
Nutze für die Darstellung ... ?
Originaldaten oder Mittelwerte auf ...
Stundenbasis Tagesbasis Wochenbasis
Monatsbasis Jahresbasis      Datenbasis: Original-Daten
Darstellen als:
Statistik (Auto) Statistik J:M      Darstellung:
Zur Graphik,    zurück zur Übersicht aller Sensoren.
 
Tabellarische Datenbersicht: ?
 
Sensor: Nr:Datum:Temp:Feuchte:Taupunkt:
Aussen-T/F 1 21-05-2018 00:00:00 14.2 C 95 % 13.41 C
2 21-05-2018 00:05:00 14.1 C 95 % 13.31 C
3 21-05-2018 00:10:00 14 C 95 % 13.21 C
4 21-05-2018 00:15:00 13.9 C 95 % 13.11 C
5 21-05-2018 00:20:00 13.8 C 95 % 13.01 C
6 21-05-2018 00:25:00 13.7 C 95 % 12.91 C
7 21-05-2018 00:30:00 13.6 C 95 % 12.81 C
8 21-05-2018 00:35:00 13.5 C 95 % 12.72 C
9 21-05-2018 00:40:00 13.4 C 94 % 12.45 C
10 21-05-2018 00:45:00 13.3 C 94 % 12.36 C
11 21-05-2018 00:50:00 13.2 C 95 % 12.42 C
12 21-05-2018 00:55:00 13.1 C 94 % 12.16 C
13 21-05-2018 01:00:00 12.9 C 94 % 11.96 C
14 21-05-2018 01:05:00 12.8 C 94 % 11.86 C
15 21-05-2018 01:10:00 12.8 C 95 % 12.02 C
16 21-05-2018 01:15:00 12.7 C 94 % 11.76 C
17 21-05-2018 01:20:00 12.6 C 94 % 11.66 C
18 21-05-2018 01:25:00 12.5 C 95 % 11.72 C
19 21-05-2018 01:30:00 12.4 C 95 % 11.62 C
20 21-05-2018 01:35:00 12.4 C 95 % 11.62 C
21 21-05-2018 01:40:00 12.3 C 95 % 11.52 C
22 21-05-2018 01:45:00 12.3 C 95 % 11.52 C
23 21-05-2018 01:50:00 12.3 C 95 % 11.52 C
24 21-05-2018 01:55:00 12.2 C 95 % 11.42 C
25 21-05-2018 02:00:00 12.2 C 95 % 11.42 C
Sensor: Nr:Datum:Temp:Feuchte:Taupunkt:
Aussen-T/F 26 21-05-2018 02:05:00 12.2 C 95 % 11.42 C
27 21-05-2018 02:10:00 12.1 C 95 % 11.32 C
28 21-05-2018 02:15:00 12.1 C 95 % 11.32 C
29 21-05-2018 02:20:00 12.1 C 95 % 11.32 C
30 21-05-2018 02:25:00 12 C 95 % 11.22 C
31 21-05-2018 02:30:00 11.9 C 95 % 11.13 C
32 21-05-2018 02:35:00 11.9 C 95 % 11.13 C
33 21-05-2018 02:40:00 11.8 C 95 % 11.03 C
34 21-05-2018 02:45:00 11.8 C 95 % 11.03 C
35 21-05-2018 02:50:00 11.7 C 95 % 10.93 C
36 21-05-2018 02:55:00 11.7 C 95 % 10.93 C
37 21-05-2018 03:00:00 11.7 C 95 % 10.93 C
38 21-05-2018 03:05:00 11.6 C 95 % 10.83 C
39 21-05-2018 03:10:00 11.5 C 95 % 10.73 C
40 21-05-2018 03:15:00 11.5 C 95 % 10.73 C
41 21-05-2018 03:20:00 11.4 C 95 % 10.63 C
42 21-05-2018 03:25:00 11.4 C 95 % 10.63 C
43 21-05-2018 03:30:00 11.4 C 95 % 10.63 C
44 21-05-2018 03:35:00 11.3 C 95 % 10.53 C
45 21-05-2018 03:40:00 11.3 C 95 % 10.53 C
46 21-05-2018 03:45:00 11.3 C 95 % 10.53 C
47 21-05-2018 03:50:00 11.2 C 95 % 10.43 C
48 21-05-2018 03:55:00 11.3 C 95 % 10.53 C
49 21-05-2018 04:00:00 11.3 C 95 % 10.53 C
50 21-05-2018 04:05:00 11.3 C 95 % 10.53 C
Sensor: Nr:Datum:Temp:Feuchte:Taupunkt:
Aussen-T/F 51 21-05-2018 04:10:00 11.3 C 95 % 10.53 C
52 21-05-2018 04:15:00 11.3 C 95 % 10.53 C
53 21-05-2018 04:20:00 11.3 C 95 % 10.53 C
54 21-05-2018 04:25:00 11.3 C 95 % 10.53 C
55 21-05-2018 04:30:00 11.3 C 95 % 10.53 C
56 21-05-2018 04:35:00 11.3 C 95 % 10.53 C
57 21-05-2018 04:40:00 11.3 C 95 % 10.53 C
58 21-05-2018 04:45:00 11.3 C 95 % 10.53 C
59 21-05-2018 04:50:00 11.3 C 95 % 10.53 C
60 21-05-2018 04:55:00 11.4 C 95 % 10.63 C
61 21-05-2018 05:00:00 11.4 C 95 % 10.63 C
62 21-05-2018 05:05:00 11.4 C 95 % 10.63 C
63 21-05-2018 05:10:00 11.4 C 95 % 10.63 C
64 21-05-2018 05:15:00 11.4 C 95 % 10.63 C
65 21-05-2018 05:20:00 11.4 C 95 % 10.63 C
66 21-05-2018 05:25:00 11.4 C 94 % 10.47 C
67 21-05-2018 05:30:00 11.4 C 95 % 10.63 C
68 21-05-2018 05:35:00 11.4 C 95 % 10.63 C
69 21-05-2018 05:40:00 11.4 C 94 % 10.47 C
70 21-05-2018 05:45:00 11.3 C 94 % 10.37 C
71 21-05-2018 05:50:00 11.3 C 94 % 10.37 C
72 21-05-2018 05:55:00 11.3 C 94 % 10.37 C
73 21-05-2018 06:00:00 11.3 C 94 % 10.37 C
74 21-05-2018 06:05:00 11.2 C 94 % 10.27 C
75 21-05-2018 06:10:00 11.2 C 93 % 10.11 C
Sensor: Nr:Datum:Temp:Feuchte:Taupunkt:
Aussen-T/F 76 21-05-2018 06:15:00 11.2 C 94 % 10.27 C
77 21-05-2018 06:20:00 11.2 C 94 % 10.27 C
78 21-05-2018 06:25:00 11.2 C 94 % 10.27 C
79 21-05-2018 06:30:00 11.2 C 94 % 10.27 C
80 21-05-2018 06:35:00 11.2 C 94 % 10.27 C
81 21-05-2018 06:40:00 11.3 C 94 % 10.37 C
82 21-05-2018 06:45:00 11.4 C 94 % 10.47 C
83 21-05-2018 06:50:00 11.6 C 94 % 10.67 C
84 21-05-2018 06:55:00 11.7 C 94 % 10.77 C
85 21-05-2018 07:00:00 11.7 C 94 % 10.77 C
86 21-05-2018 07:05:00 11.7 C 93 % 10.61 C
87 21-05-2018 07:10:00 11.8 C 93 % 10.71 C
88 21-05-2018 07:15:00 11.8 C 93 % 10.71 C
89 21-05-2018 07:20:00 11.8 C 93 % 10.71 C
90 21-05-2018 07:25:00 11.8 C 93 % 10.71 C
91 21-05-2018 07:30:00 11.8 C 93 % 10.71 C
92 21-05-2018 07:35:00 11.8 C 93 % 10.71 C
93 21-05-2018 07:40:00 11.7 C 92 % 10.44 C
94 21-05-2018 07:45:00 11.7 C 92 % 10.44 C
95 21-05-2018 07:50:00 11.7 C 92 % 10.44 C
96 21-05-2018 07:55:00 11.7 C 92 % 10.44 C
97 21-05-2018 08:00:00 11.7 C 92 % 10.44 C
98 21-05-2018 08:05:00 11.8 C 93 % 10.71 C
99 21-05-2018 08:10:00 11.8 C 93 % 10.71 C
100 21-05-2018 08:15:00 11.9 C 93 % 10.81 C
Sensor: Nr:Datum:Temp:Feuchte:Taupunkt:
Aussen-T/F 101 21-05-2018 08:20:00 11.9 C 93 % 10.81 C
102 21-05-2018 08:25:00 11.9 C 93 % 10.81 C
103 21-05-2018 08:30:00 12 C 93 % 10.9 C
104 21-05-2018 08:35:00 12.1 C 93 % 11 C
105 21-05-2018 08:40:00 12.2 C 93 % 11.1 C
106 21-05-2018 08:45:00 12.3 C 93 % 11.2 C
107 21-05-2018 08:50:00 12.4 C 94 % 11.46 C
108 21-05-2018 08:55:00 12.7 C 94 % 11.76 C
109 21-05-2018 09:00:00 12.9 C 94 % 11.96 C
110 21-05-2018 09:05:00 13.3 C 95 % 12.52 C
111 21-05-2018 09:10:00 13.6 C 95 % 12.81 C
112 21-05-2018 09:15:00 13.8 C 94 % 12.85 C
113 21-05-2018 09:20:00 14 C 94 % 13.05 C
114 21-05-2018 09:25:00 14.1 C 93 % 12.99 C
115 21-05-2018 09:30:00 14.4 C 93 % 13.28 C
116 21-05-2018 09:35:00 14.6 C 92 % 13.32 C
117 21-05-2018 09:40:00 14.8 C 90 % 13.18 C
118 21-05-2018 09:45:00 15.1 C 89 % 13.3 C
119 21-05-2018 09:50:00 15.4 C 90 % 13.77 C
120 21-05-2018 09:55:00 15.6 C 84 % 12.91 C
121 21-05-2018 10:00:00 16.1 C 85 % 13.58 C
122 21-05-2018 10:05:00 16.3 C 80 % 12.85 C
123 21-05-2018 10:10:00 16.8 C 81 % 13.52 C
124 21-05-2018 10:15:00 17.2 C 77 % 13.14 C
125 21-05-2018 10:20:00 17.6 C 75 % 13.12 C
Sensor: Nr:Datum:Temp:Feuchte:Taupunkt:
Aussen-T/F 126 21-05-2018 10:25:00 17.9 C 73 % 12.99 C
127 21-05-2018 10:30:00 18.1 C 72 % 12.98 C
128 21-05-2018 10:35:00 18.1 C 76 % 13.81 C
129 21-05-2018 10:40:00 18 C 71 % 12.67 C
130 21-05-2018 10:45:00 18.1 C 74 % 13.4 C
131 21-05-2018 10:50:00 18.1 C 77 % 14.01 C
132 21-05-2018 10:55:00 18.1 C 78 % 14.21 C
133 21-05-2018 11:00:00 18 C 77 % 13.91 C
134 21-05-2018 11:05:00 18.1 C 80 % 14.6 C
135 21-05-2018 11:10:00 18 C 75 % 13.51 C
136 21-05-2018 11:15:00 18.2 C 77 % 14.1 C
137 21-05-2018 11:20:00 18.4 C 75 % 13.89 C
138 21-05-2018 11:25:00 18.8 C 72 % 13.65 C
139 21-05-2018 11:30:00 19.1 C 70 % 13.5 C
140 21-05-2018 11:35:00 19.4 C 69 % 13.57 C
141 21-05-2018 11:40:00 19.6 C 68 % 13.54 C
142 21-05-2018 11:45:00 19.7 C 66 % 13.17 C
143 21-05-2018 11:50:00 19.9 C 71 % 14.49 C
144 21-05-2018 11:55:00 19.8 C 68 % 13.73 C
145 21-05-2018 12:00:00 19.8 C 69 % 13.95 C
146 21-05-2018 12:05:00 19.9 C 69 % 14.05 C
147 21-05-2018 12:10:00 20.1 C 68 % 14.01 C
148 21-05-2018 12:15:00 20.3 C 64 % 13.27 C
149 21-05-2018 12:20:00 20.6 C 67 % 14.26 C
150 21-05-2018 12:25:00 20.7 C 64 % 13.65 C
Sensor: Nr:Datum:Temp:Feuchte:Taupunkt:
Aussen-T/F 151 21-05-2018 12:30:00 20.8 C 64 % 13.74 C
152 21-05-2018 12:35:00 20.9 C 67 % 14.55 C
153 21-05-2018 12:40:00 21 C 66 % 14.41 C
154 21-05-2018 12:45:00 21.2 C 66 % 14.6 C
155 21-05-2018 12:50:00 21.2 C 61 % 13.38 C
156 21-05-2018 12:55:00 21.3 C 62 % 13.73 C
157 21-05-2018 13:00:00 21.4 C 60 % 13.32 C
158 21-05-2018 13:05:00 21.4 C 61 % 13.57 C
159 21-05-2018 13:10:00 21.6 C 65 % 14.74 C
160 21-05-2018 13:15:00 21.7 C 61 % 13.85 C
161 21-05-2018 13:20:00 21.7 C 60 % 13.6 C
162 21-05-2018 13:25:00 22 C 59 % 13.62 C
163 21-05-2018 13:30:00 22.2 C 59 % 13.81 C
164 21-05-2018 13:35:00 22.3 C 57 % 13.37 C
165 21-05-2018 13:40:00 22.4 C 58 % 13.73 C
166 21-05-2018 13:45:00 22.4 C 65 % 15.5 C
167 21-05-2018 13:50:00 22.4 C 71 % 16.88 C
168 21-05-2018 13:55:00 22.4 C 55 % 12.92 C
169 21-05-2018 14:00:00 22.7 C 63 % 15.3 C
170 21-05-2018 14:05:00 22.8 C 57 % 13.84 C
171 21-05-2018 14:10:00 23.1 C 54 % 13.29 C
172 21-05-2018 14:15:00 23.5 C 54 % 13.66 C
173 21-05-2018 14:20:00 23.8 C 52 % 13.36 C
174 21-05-2018 14:25:00 23.9 C 57 % 14.87 C
175 21-05-2018 14:30:00 24.1 C 57 % 15.05 C
Sensor: Nr:Datum:Temp:Feuchte:Taupunkt:
Aussen-T/F 176 21-05-2018 14:35:00 24 C 58 % 15.23 C
177 21-05-2018 14:40:00 24 C 55 % 14.41 C
178 21-05-2018 14:45:00 24 C 56 % 14.68 C
179 21-05-2018 14:50:00 24 C 56 % 14.68 C
180 21-05-2018 14:55:00 24.1 C 57 % 15.05 C
181 21-05-2018 15:00:00 24.1 C 55 % 14.5 C
182 21-05-2018 15:05:00 24.1 C 51 % 13.34 C
183 21-05-2018 15:10:00 24.1 C 50 % 13.03 C
184 21-05-2018 15:15:00 24.3 C 58 % 15.51 C
185 21-05-2018 15:20:00 24.3 C 50 % 13.22 C
186 21-05-2018 15:25:00 24.3 C 54 % 14.4 C
187 21-05-2018 15:30:00 24.5 C 49 % 13.09 C
188 21-05-2018 15:35:00 24.6 C 61 % 16.58 C
189 21-05-2018 15:40:00 24.5 C 56 % 15.15 C
190 21-05-2018 15:45:00 24.4 C 53 % 14.2 C
191 21-05-2018 15:50:00 24.3 C 53 % 14.11 C
192 21-05-2018 15:55:00 24.1 C 60 % 15.85 C
193 21-05-2018 16:00:00 23.9 C 63 % 16.43 C
194 21-05-2018 16:05:00 23.7 C 66 % 16.97 C
195 21-05-2018 16:10:00 23.5 C 68 % 17.25 C
196 21-05-2018 16:15:00 23.4 C 58 % 14.67 C
197 21-05-2018 16:20:00 23.8 C 55 % 14.22 C
198 21-05-2018 16:25:00 24.3 C 53 % 14.11 C
199 21-05-2018 16:30:00 24.8 C 52 % 14.28 C
200 21-05-2018 16:35:00 25.2 C 49 % 13.73 C
Sensor: Nr:Datum:Temp:Feuchte:Taupunkt:
Aussen-T/F 201 21-05-2018 16:40:00 25.5 C 54 % 15.51 C
202 21-05-2018 16:45:00 25.5 C 46 % 13.03 C
203 21-05-2018 16:50:00 25.3 C 51 % 14.44 C
204 21-05-2018 16:55:00 25.2 C 58 % 16.35 C
205 21-05-2018 17:00:00 25.1 C 61 % 17.05 C
206 21-05-2018 17:05:00 25.2 C 51 % 14.35 C
207 21-05-2018 17:10:00 25.7 C 50 % 14.5 C
208 21-05-2018 17:15:00 25.9 C 57 % 16.73 C
209 21-05-2018 17:20:00 25.6 C 48 % 13.78 C
210 21-05-2018 17:25:00 25.3 C 53 % 15.03 C
211 21-05-2018 17:30:00 25 C 63 % 17.47 C
212 21-05-2018 17:35:00 24.7 C 65 % 17.68 C
213 21-05-2018 17:40:00 24.3 C 63 % 16.81 C
214 21-05-2018 17:45:00 23.9 C 64 % 16.68 C
215 21-05-2018 17:50:00 23.4 C 64 % 16.2 C
216 21-05-2018 17:55:00 23 C 66 % 16.31 C
217 21-05-2018 18:00:00 22.7 C 68 % 16.49 C
218 21-05-2018 18:05:00 22.7 C 72 % 17.39 C
219 21-05-2018 18:10:00 22.9 C 65 % 15.97 C
220 21-05-2018 18:15:00 23.3 C 69 % 17.29 C
221 21-05-2018 18:20:00 23.6 C 69 % 17.58 C
222 21-05-2018 18:25:00 23.7 C 69 % 17.67 C
223 21-05-2018 18:30:00 23.8 C 60 % 15.57 C
224 21-05-2018 18:35:00 24.3 C 57 % 15.24 C
225 21-05-2018 18:40:00 25.1 C 65 % 18.06 C
Sensor: Nr:Datum:Temp:Feuchte:Taupunkt:
Aussen-T/F 226 21-05-2018 18:45:00 25.6 C 53 % 15.31 C
227 21-05-2018 18:50:00 26.1 C 57 % 16.92 C
228 21-05-2018 18:55:00 26.3 C 50 % 15.05 C
229 21-05-2018 19:00:00 26.1 C 51 % 15.17 C
230 21-05-2018 19:05:00 25.8 C 53 % 15.5 C
231 21-05-2018 19:10:00 25.3 C 52 % 14.74 C
232 21-05-2018 19:15:00 24.8 C 55 % 15.15 C
233 21-05-2018 19:20:00 24.6 C 63 % 17.09 C
234 21-05-2018 19:25:00 24.3 C 63 % 16.81 C
235 21-05-2018 19:30:00 23.8 C 64 % 16.58 C
236 21-05-2018 19:35:00 23.3 C 65 % 16.35 C
237 21-05-2018 19:40:00 22.8 C 66 % 16.12 C
238 21-05-2018 19:45:00 22.4 C 67 % 15.97 C
239 21-05-2018 19:50:00 22.1 C 68 % 15.92 C
240 21-05-2018 19:55:00 21.8 C 69 % 15.86 C
241 21-05-2018 20:00:00 21.9 C 70 % 16.18 C
242 21-05-2018 20:05:00 21.9 C 70 % 16.18 C
243 21-05-2018 20:10:00 22 C 70 % 16.28 C
244 21-05-2018 20:15:00 22.1 C 70 % 16.37 C
245 21-05-2018 20:20:00 21.9 C 70 % 16.18 C
246 21-05-2018 20:25:00 21.8 C 70 % 16.09 C
247 21-05-2018 20:30:00 21.6 C 70 % 15.89 C
248 21-05-2018 20:35:00 21.3 C 70 % 15.61 C
249 21-05-2018 20:40:00 20.9 C 71 % 15.45 C
250 21-05-2018 20:45:00 20.6 C 71 % 15.16 C
Sensor: Nr:Datum:Temp:Feuchte:Taupunkt:
Aussen-T/F 251 21-05-2018 20:50:00 20.2 C 71 % 14.78 C
252 21-05-2018 20:55:00 19.9 C 71 % 14.49 C
253 21-05-2018 21:00:00 19.7 C 71 % 14.3 C
254 21-05-2018 21:05:00 19.4 C 72 % 14.22 C
255 21-05-2018 21:10:00 19.3 C 73 % 14.34 C
256 21-05-2018 21:15:00 19.1 C 72 % 13.94 C
257 21-05-2018 21:20:00 18.9 C 73 % 13.96 C
258 21-05-2018 21:25:00 18.8 C 74 % 14.07 C
259 21-05-2018 21:30:00 18.7 C 74 % 13.97 C
260 21-05-2018 21:35:00 18.6 C 75 % 14.08 C
261 21-05-2018 21:40:00 18.4 C 74 % 13.68 C
262 21-05-2018 21:45:00 18.2 C 76 % 13.9 C
263 21-05-2018 21:50:00 18 C 78 % 14.11 C
264 21-05-2018 21:55:00 17.8 C 78 % 13.91 C
265 21-05-2018 22:00:00 17.6 C 79 % 13.92 C
266 21-05-2018 22:05:00 17.4 C 79 % 13.72 C
267 21-05-2018 22:10:00 17.2 C 80 % 13.72 C
268 21-05-2018 22:15:00 17 C 80 % 13.53 C
269 21-05-2018 22:20:00 16.8 C 81 % 13.52 C
270 21-05-2018 22:25:00 16.7 C 81 % 13.43 C
271 21-05-2018 22:30:00 16.6 C 82 % 13.52 C
272 21-05-2018 22:35:00 16.4 C 82 % 13.32 C
273 21-05-2018 22:40:00 16.3 C 82 % 13.22 C
274 21-05-2018 22:45:00 16.3 C 83 % 13.41 C
275 21-05-2018 22:50:00 16.2 C 83 % 13.31 C
Sensor: Nr:Datum:Temp:Feuchte:Taupunkt:
Aussen-T/F 276 21-05-2018 22:55:00 16.2 C 83 % 13.31 C
277 21-05-2018 23:00:00 16.2 C 83 % 13.31 C
278 21-05-2018 23:05:00 16.1 C 83 % 13.21 C
279 21-05-2018 23:10:00 16 C 84 % 13.3 C
280 21-05-2018 23:15:00 15.9 C 84 % 13.2 C
281 21-05-2018 23:20:00 15.8 C 85 % 13.28 C
282 21-05-2018 23:25:00 15.7 C 85 % 13.19 C
283 21-05-2018 23:30:00 15.6 C 86 % 13.27 C
284 21-05-2018 23:35:00 15.5 C 86 % 13.17 C
285 21-05-2018 23:40:00 15.4 C 86 % 13.07 C
286 21-05-2018 23:45:00 15.3 C 86 % 12.97 C
287 21-05-2018 23:50:00 15.2 C 86 % 12.88 C
288 21-05-2018 23:55:00 15.1 C 86 % 12.78 C
289 22-05-2018 00:00:00 15 C 87 % 12.86 C
290 22-05-2018 00:05:00 14.9 C 87 % 12.76 C
291 22-05-2018 00:10:00 14.7 C 87 % 12.56 C
292 22-05-2018 00:15:00 14.7 C 87 % 12.56 C
293 22-05-2018 00:20:00 14.6 C 87 % 12.46 C
294 22-05-2018 00:25:00 14.4 C 88 % 12.44 C
295 22-05-2018 00:30:00 14.4 C 88 % 12.44 C
296 22-05-2018 00:35:00 14.3 C 88 % 12.34 C
297 22-05-2018 00:40:00 14.3 C 89 % 12.51 C
298 22-05-2018 00:45:00 14.3 C 89 % 12.51 C
299 22-05-2018 00:50:00 14.3 C 89 % 12.51 C
300 22-05-2018 00:55:00 14.3 C 89 % 12.51 C
Sensor: Nr:Datum:Temp:Feuchte:Taupunkt:
Aussen-T/F 301 22-05-2018 01:00:00 14.4 C 90 % 12.78 C
302 22-05-2018 01:05:00 14.4 C 90 % 12.78 C
303 22-05-2018 01:10:00 14.5 C 90 % 12.88 C
304 22-05-2018 01:15:00 14.5 C 90 % 12.88 C
305 22-05-2018 01:20:00 14.5 C 90 % 12.88 C
306 22-05-2018 01:25:00 14.5 C 90 % 12.88 C
307 22-05-2018 01:30:00 14.5 C 90 % 12.88 C
308 22-05-2018 01:35:00 14.4 C 90 % 12.78 C
309 22-05-2018 01:40:00 14.4 C 90 % 12.78 C
310 22-05-2018 01:45:00 14.3 C 90 % 12.68 C
311 22-05-2018 01:50:00 14.3 C 90 % 12.68 C
312 22-05-2018 01:55:00 14.2 C 90 % 12.58 C
313 22-05-2018 02:00:00 14.2 C 90 % 12.58 C
314 22-05-2018 02:05:00 14.1 C 90 % 12.49 C
315 22-05-2018 02:10:00 14.1 C 89 % 12.32 C
316 22-05-2018 02:15:00 14.1 C 89 % 12.32 C
317 22-05-2018 02:20:00 14.1 C 90 % 12.49 C
318 22-05-2018 02:25:00 14.1 C 91 % 12.65 C
319 22-05-2018 02:30:00 14.1 C 90 % 12.49 C
320 22-05-2018 02:35:00 14.2 C 91 % 12.75 C
321 22-05-2018 02:40:00 14.1 C 90 % 12.49 C
322 22-05-2018 02:45:00 14.1 C 90 % 12.49 C
323 22-05-2018 02:50:00 14 C 90 % 12.39 C
324 22-05-2018 02:55:00 14 C 90 % 12.39 C
325 22-05-2018 03:00:00 14 C 90 % 12.39 C
Sensor: Nr:Datum:Temp:Feuchte:Taupunkt:
Aussen-T/F 326 22-05-2018 03:05:00 13.9 C 90 % 12.29 C
327 22-05-2018 03:10:00 13.9 C 90 % 12.29 C
328 22-05-2018 03:15:00 13.8 C 90 % 12.19 C
329 22-05-2018 03:20:00 13.8 C 90 % 12.19 C
330 22-05-2018 03:25:00 13.8 C 90 % 12.19 C
331 22-05-2018 03:30:00 13.8 C 90 % 12.19 C
332 22-05-2018 03:35:00 13.8 C 90 % 12.19 C
333 22-05-2018 03:40:00 13.7 C 90 % 12.09 C
334 22-05-2018 03:45:00 13.7 C 90 % 12.09 C
335 22-05-2018 03:50:00 13.8 C 91 % 12.36 C
336 22-05-2018 03:55:00 13.8 C 91 % 12.36 C
337 22-05-2018 04:00:00 13.9 C 91 % 12.46 C
338 22-05-2018 04:05:00 13.9 C 90 % 12.29 C
339 22-05-2018 04:10:00 13.8 C 90 % 12.19 C
340 22-05-2018 04:15:00 13.8 C 90 % 12.19 C
341 22-05-2018 04:20:00 13.8 C 90 % 12.19 C
342 22-05-2018 04:25:00 13.7 C 90 % 12.09 C
343 22-05-2018 04:30:00 13.6 C 89 % 11.82 C
344 22-05-2018 04:35:00 13.4 C 89 % 11.63 C
345 22-05-2018 04:40:00 13.4 C 89 % 11.63 C
346 22-05-2018 04:45:00 13.3 C 90 % 11.7 C
347 22-05-2018 04:50:00 13.2 C 90 % 11.6 C
348 22-05-2018 04:55:00 13.2 C 90 % 11.6 C
349 22-05-2018 05:00:00 13 C 89 % 11.23 C
350 22-05-2018 05:05:00 12.8 C 89 % 11.03 C
Sensor: Nr:Datum:Temp:Feuchte:Taupunkt:
Aussen-T/F 351 22-05-2018 05:10:00 12.7 C 89 % 10.94 C
352 22-05-2018 05:15:00 12.6 C 89 % 10.84 C
353 22-05-2018 05:20:00 12.6 C 89 % 10.84 C
354 22-05-2018 05:25:00 12.5 C 89 % 10.74 C
355 22-05-2018 05:30:00 12.4 C 90 % 10.81 C
356 22-05-2018 05:35:00 12.5 C 91 % 11.07 C
357 22-05-2018 05:40:00 12.5 C 91 % 11.07 C
358 22-05-2018 05:45:00 12.5 C 91 % 11.07 C
359 22-05-2018 05:50:00 12.6 C 92 % 11.34 C
360 22-05-2018 05:55:00 12.6 C 92 % 11.34 C
361 22-05-2018 06:00:00 12.7 C 92 % 11.43 C
362 22-05-2018 06:05:00 12.7 C 92 % 11.43 C
363 22-05-2018 06:10:00 12.8 C 92 % 11.53 C
364 22-05-2018 06:15:00 12.8 C 93 % 11.7 C
365 22-05-2018 06:20:00 12.9 C 93 % 11.8 C
366 22-05-2018 06:25:00 12.9 C 93 % 11.8 C
367 22-05-2018 06:30:00 13 C 92 % 11.73 C
368 22-05-2018 06:35:00 13.1 C 93 % 11.99 C
369 22-05-2018 06:40:00 13.2 C 93 % 12.09 C
370 22-05-2018 06:45:00 13.3 C 93 % 12.19 C
371 22-05-2018 06:50:00 13.4 C 93 % 12.29 C
372 22-05-2018 06:55:00 13.5 C 93 % 12.39 C
373 22-05-2018 07:00:00 13.6 C 93 % 12.49 C
374 22-05-2018 07:05:00 13.7 C 93 % 12.59 C
375 22-05-2018 07:10:00 13.8 C 93 % 12.69 C
Sensor: Nr:Datum:Temp:Feuchte:Taupunkt:
Aussen-T/F 376 22-05-2018 07:15:00 13.8 C 93 % 12.69 C
377 22-05-2018 07:20:00 13.9 C 93 % 12.79 C
378 22-05-2018 07:25:00 14.1 C 93 % 12.99 C
379 22-05-2018 07:30:00 14.2 C 93 % 13.08 C
380 22-05-2018 07:35:00 14.3 C 93 % 13.18 C
381 22-05-2018 07:40:00 14.3 C 93 % 13.18 C
382 22-05-2018 07:45:00 14.4 C 92 % 13.12 C
383 22-05-2018 07:50:00 14.4 C 92 % 13.12 C
384 22-05-2018 07:55:00 14.6 C 92 % 13.32 C
385 22-05-2018 08:00:00 14.8 C 92 % 13.51 C
386 22-05-2018 08:05:00 14.9 C 92 % 13.61 C
387 22-05-2018 08:10:00 15.1 C 91 % 13.64 C
388 22-05-2018 08:15:00 15.2 C 91 % 13.74 C
389 22-05-2018 08:20:00 15.3 C 90 % 13.67 C
390 22-05-2018 08:25:00 15.4 C 89 % 13.6 C
391 22-05-2018 08:30:00 15.5 C 89 % 13.7 C
392 22-05-2018 08:35:00 15.6 C 89 % 13.79 C
393 22-05-2018 08:40:00 15.8 C 89 % 13.99 C
394 22-05-2018 08:45:00 15.9 C 88 % 13.92 C
395 22-05-2018 08:50:00 15.9 C 87 % 13.74 C
396 22-05-2018 08:55:00 16.1 C 86 % 13.76 C
397 22-05-2018 09:00:00 16.2 C 85 % 13.68 C
398 22-05-2018 09:05:00 16.3 C 85 % 13.77 C
399 22-05-2018 09:10:00 16.5 C 86 % 14.15 C
400 22-05-2018 09:15:00 16.6 C 84 % 13.89 C
Sensor: Nr:Datum:Temp:Feuchte:Taupunkt:
Aussen-T/F 401 22-05-2018 09:20:00 16.7 C 84 % 13.98 C
402 22-05-2018 09:25:00 16.8 C 83 % 13.9 C
403 22-05-2018 09:30:00 16.9 C 83 % 14 C
404 22-05-2018 09:35:00 17.1 C 83 % 14.19 C
405 22-05-2018 09:40:00 17.2 C 82 % 14.1 C
406 22-05-2018 09:45:00 17.3 C 83 % 14.39 C
407 22-05-2018 09:50:00 17.6 C 80 % 14.11 C
408 22-05-2018 09:55:00 17.7 C 79 % 14.01 C
409 22-05-2018 10:00:00 17.8 C 79 % 14.11 C
410 22-05-2018 10:05:00 17.9 C 78 % 14.01 C
411 22-05-2018 10:10:00 18.1 C 77 % 14.01 C
412 22-05-2018 10:15:00 18.3 C 77 % 14.2 C
413 22-05-2018 10:20:00 18.4 C 76 % 14.1 C
414 22-05-2018 10:25:00 18.6 C 76 % 14.29 C
415 22-05-2018 10:30:00 18.8 C 76 % 14.48 C
416 22-05-2018 10:35:00 18.9 C 74 % 14.17 C
417 22-05-2018 10:40:00 19.1 C 72 % 13.94 C
418 22-05-2018 10:45:00 19.2 C 71 % 13.82 C
419 22-05-2018 10:50:00 19.3 C 72 % 14.13 C
420 22-05-2018 10:55:00 19.4 C 70 % 13.79 C
421 22-05-2018 11:00:00 19.5 C 70 % 13.89 C
422 22-05-2018 11:05:00 19.7 C 69 % 13.86 C
423 22-05-2018 11:10:00 19.8 C 71 % 14.39 C
424 22-05-2018 11:15:00 20 C 70 % 14.36 C
425 22-05-2018 11:20:00 20.2 C 69 % 14.33 C
Sensor: Nr:Datum:Temp:Feuchte:Taupunkt:
Aussen-T/F 426 22-05-2018 11:25:00 20.3 C 68 % 14.2 C
427 22-05-2018 11:30:00 20.4 C 66 % 13.84 C
428 22-05-2018 11:35:00 20.5 C 68 % 14.39 C
429 22-05-2018 11:40:00 20.6 C 68 % 14.49 C
430 22-05-2018 11:45:00 20.7 C 68 % 14.58 C
431 22-05-2018 11:50:00 20.7 C 66 % 14.12 C
432 22-05-2018 11:55:00 20.8 C 67 % 14.45 C
433 22-05-2018 12:00:00 20.8 C 66 % 14.22 C
434 22-05-2018 12:05:00 20.9 C 64 % 13.84 C
435 22-05-2018 12:10:00 21 C 64 % 13.93 C
436 22-05-2018 12:15:00 21.2 C 64 % 14.12 C
437 22-05-2018 12:20:00 21.4 C 61 % 13.57 C
438 22-05-2018 12:25:00 21.6 C 62 % 14.01 C
439 22-05-2018 12:30:00 21.8 C 61 % 13.95 C
440 22-05-2018 12:35:00 22.1 C 58 % 13.45 C
441 22-05-2018 12:40:00 22.2 C 58 % 13.55 C
442 22-05-2018 12:45:00 22.3 C 60 % 14.16 C
443 22-05-2018 12:50:00 22.5 C 60 % 14.35 C
444 22-05-2018 12:55:00 22.6 C 60 % 14.44 C
445 22-05-2018 13:00:00 22.6 C 60 % 14.44 C
446 22-05-2018 13:05:00 22.6 C 60 % 14.44 C
447 22-05-2018 13:10:00 22.7 C 60 % 14.54 C
448 22-05-2018 13:15:00 22.8 C 60 % 14.63 C
449 22-05-2018 13:20:00 22.9 C 59 % 14.47 C
450 22-05-2018 13:25:00 23.1 C 59 % 14.65 C
Sensor: Nr:Datum:Temp:Feuchte:Taupunkt:
Aussen-T/F 451 22-05-2018 13:30:00 23.3 C 60 % 15.1 C
452 22-05-2018 13:35:00 23.4 C 60 % 15.19 C
453 22-05-2018 13:40:00 23.6 C 58 % 14.86 C
454 22-05-2018 13:45:00 23.8 C 58 % 15.04 C
455 22-05-2018 13:50:00 23.9 C 57 % 14.87 C
456 22-05-2018 13:55:00 24 C 65 % 17.01 C
457 22-05-2018 14:00:00 23.8 C 58 % 15.04 C
458 22-05-2018 14:05:00 23.7 C 64 % 16.49 C
459 22-05-2018 14:10:00 23.6 C 62 % 15.89 C
460 22-05-2018 14:15:00 23.8 C 70 % 18 C
461 22-05-2018 14:20:00 23.8 C 69 % 17.77 C
462 22-05-2018 14:25:00 23.9 C 66 % 17.16 C
463 22-05-2018 14:30:00 23.9 C 67 % 17.4 C
464 22-05-2018 14:35:00 23.9 C 62 % 16.18 C
465 22-05-2018 14:40:00 24.2 C 60 % 15.95 C
466 22-05-2018 14:45:00 24.3 C 56 % 14.96 C
467 22-05-2018 14:50:00 24.3 C 61 % 16.3 C
468 22-05-2018 14:55:00 24.2 C 67 % 17.68 C
469 22-05-2018 15:00:00 24.1 C 68 % 17.82 C
470 22-05-2018 15:05:00 23.7 C 63 % 16.24 C
471 22-05-2018 15:10:00 23.1 C 61 % 15.17 C
472 22-05-2018 15:15:00 22.7 C 59 % 14.28 C
473 22-05-2018 15:20:00 22.3 C 62 % 14.67 C
474 22-05-2018 15:25:00 21.9 C 59 % 13.53 C
475 22-05-2018 15:30:00 21.8 C 64 % 14.69 C
Sensor: Nr:Datum:Temp:Feuchte:Taupunkt:
Aussen-T/F 476 22-05-2018 15:35:00 21.7 C 63 % 14.35 C
477 22-05-2018 15:40:00 21.7 C 63 % 14.35 C
478 22-05-2018 15:45:00 22.1 C 65 % 15.21 C
479 22-05-2018 15:50:00 22.1 C 66 % 15.45 C
480 22-05-2018 15:55:00 21.6 C 68 % 15.44 C
481 22-05-2018 16:00:00 21.3 C 71 % 15.83 C
482 22-05-2018 16:05:00 21.3 C 72 % 16.05 C
483 22-05-2018 16:10:00 21.6 C 72 % 16.34 C
484 22-05-2018 16:15:00 21.9 C 69 % 15.96 C
485 22-05-2018 16:20:00 22.3 C 69 % 16.34 C
486 22-05-2018 16:25:00 22.4 C 68 % 16.2 C
487 22-05-2018 16:30:00 22.3 C 68 % 16.11 C
488 22-05-2018 16:35:00 22 C 65 % 15.12 C
489 22-05-2018 16:40:00 21.4 C 66 % 14.79 C
490 22-05-2018 16:45:00 20.8 C 67 % 14.45 C
491 22-05-2018 16:50:00 20.3 C 68 % 14.2 C
492 22-05-2018 16:55:00 19.9 C 67 % 13.59 C
493 22-05-2018 17:00:00 19.6 C 68 % 13.54 C
494 22-05-2018 17:05:00 19.4 C 68 % 13.34 C
495 22-05-2018 17:10:00 19.3 C 71 % 13.91 C
496 22-05-2018 17:15:00 19.1 C 71 % 13.72 C
497 22-05-2018 17:20:00 19 C 73 % 14.05 C
498 22-05-2018 17:25:00 18.9 C 74 % 14.17 C
499 22-05-2018 17:30:00 18.8 C 74 % 14.07 C
500 22-05-2018 17:35:00 18.7 C 75 % 14.18 C
Sensor: Nr:Datum:Temp:Feuchte:Taupunkt:
Aussen-T/F 501 22-05-2018 17:40:00 18.6 C 76 % 14.29 C
502 22-05-2018 17:45:00 18.5 C 76 % 14.19 C
503 22-05-2018 17:50:00 18.5 C 79 % 14.79 C
504 22-05-2018 17:55:00 18.4 C 80 % 14.89 C
505 22-05-2018 18:00:00 18.3 C 81 % 14.98 C
506 22-05-2018 18:05:00 18.1 C 83 % 15.17 C
507 22-05-2018 18:10:00 17.8 C 84 % 15.06 C
508 22-05-2018 18:15:00 17.6 C 85 % 15.05 C
509 22-05-2018 18:20:00 17.4 C 86 % 15.03 C
510 22-05-2018 18:25:00 17.2 C 87 % 15.02 C
511 22-05-2018 18:30:00 17.1 C 88 % 15.1 C
512 22-05-2018 18:35:00 16.9 C 88 % 14.9 C
513 22-05-2018 18:40:00 16.8 C 89 % 14.98 C
514 22-05-2018 18:45:00 16.7 C 90 % 15.05 C
515 22-05-2018 18:50:00 16.7 C 90 % 15.05 C
516 22-05-2018 18:55:00 16.6 C 91 % 15.13 C
517 22-05-2018 19:00:00 16.6 C 91 % 15.13 C
518 22-05-2018 19:05:00 16.5 C 91 % 15.03 C
519 22-05-2018 19:10:00 16.4 C 91 % 14.93 C
520 22-05-2018 19:15:00 16.3 C 91 % 14.83 C
521 22-05-2018 19:20:00 16.2 C 92 % 14.9 C
522 22-05-2018 19:25:00 16.2 C 92 % 14.9 C
523 22-05-2018 19:30:00 16.1 C 92 % 14.8 C
524 22-05-2018 19:35:00 16.1 C 92 % 14.8 C
525 22-05-2018 19:40:00 16.1 C 92 % 14.8 C
Sensor: Nr:Datum:Temp:Feuchte:Taupunkt:
Aussen-T/F 526 22-05-2018 19:45:00 16.1 C 92 % 14.8 C
527 22-05-2018 19:50:00 16 C 92 % 14.7 C
528 22-05-2018 19:55:00 15.9 C 92 % 14.6 C
529 22-05-2018 20:00:00 15.8 C 93 % 14.67 C
530 22-05-2018 20:05:00 15.8 C 93 % 14.67 C
531 22-05-2018 20:10:00 15.8 C 93 % 14.67 C
532 22-05-2018 20:15:00 15.7 C 93 % 14.57 C
533 22-05-2018 20:20:00 15.7 C 93 % 14.57 C
534 22-05-2018 20:25:00 15.7 C 93 % 14.57 C
535 22-05-2018 20:30:00 15.7 C 93 % 14.57 C
536 22-05-2018 20:35:00 15.7 C 93 % 14.57 C
537 22-05-2018 20:40:00 15.7 C 93 % 14.57 C
538 22-05-2018 20:45:00 15.7 C 93 % 14.57 C
539 22-05-2018 20:50:00 15.7 C 94 % 14.74 C
540 22-05-2018 20:55:00 15.6 C 94 % 14.64 C
541 22-05-2018 21:00:00 15.6 C 94 % 14.64 C
542 22-05-2018 21:05:00 15.5 C 94 % 14.54 C
543 22-05-2018 21:10:00 15.4 C 94 % 14.44 C
544 22-05-2018 21:15:00 15.4 C 94 % 14.44 C
545 22-05-2018 21:20:00 15.4 C 94 % 14.44 C
546 22-05-2018 21:25:00 15.4 C 94 % 14.44 C
547 22-05-2018 21:30:00 15.3 C 94 % 14.34 C
548 22-05-2018 21:35:00 15.3 C 94 % 14.34 C
549 22-05-2018 21:40:00 15.3 C 94 % 14.34 C
550 22-05-2018 21:45:00 15.2 C 94 % 14.24 C
Sensor: Nr:Datum:Temp:Feuchte:Taupunkt:
Aussen-T/F 551 22-05-2018 21:50:00 15.2 C 94 % 14.24 C
552 22-05-2018 21:55:00 15.1 C 94 % 14.14 C
553 22-05-2018 22:00:00 15.1 C 94 % 14.14 C
554 22-05-2018 22:05:00 15.1 C 94 % 14.14 C
555 22-05-2018 22:10:00 15.1 C 94 % 14.14 C
556 22-05-2018 22:15:00 15.1 C 94 % 14.14 C
557 22-05-2018 22:20:00 15.1 C 95 % 14.31 C
558 22-05-2018 22:25:00 15 C 95 % 14.21 C
559 22-05-2018 22:30:00 15 C 95 % 14.21 C
560 22-05-2018 22:35:00 14.9 C 95 % 14.11 C
561 22-05-2018 22:40:00 14.9 C 95 % 14.11 C
562 22-05-2018 22:45:00 14.9 C 94 % 13.94 C
563 22-05-2018 22:50:00 14.9 C 95 % 14.11 C
564 22-05-2018 22:55:00 14.9 C 95 % 14.11 C
565 22-05-2018 23:00:00 14.9 C 95 % 14.11 C
566 22-05-2018 23:05:00 14.9 C 95 % 14.11 C
567 22-05-2018 23:10:00 14.9 C 95 % 14.11 C
568 22-05-2018 23:15:00 14.9 C 95 % 14.11 C
569 22-05-2018 23:20:00 14.9 C 95 % 14.11 C
570 22-05-2018 23:25:00 14.9 C 95 % 14.11 C
571 22-05-2018 23:30:00 14.9 C 95 % 14.11 C
572 22-05-2018 23:35:00 14.9 C 95 % 14.11 C
573 22-05-2018 23:40:00 14.9 C 95 % 14.11 C
574 22-05-2018 23:45:00 14.9 C 95 % 14.11 C
575 22-05-2018 23:50:00 14.9 C 95 % 14.11 C
Sensor: Nr:Datum:Temp:Feuchte:Taupunkt:
Aussen-T/F 576 22-05-2018 23:55:00 14.9 C 95 % 14.11 C
577 23-05-2018 00:00:00 14.8 C 95 % 14.01 C
578 23-05-2018 00:05:00 14.8 C 95 % 14.01 C
579 23-05-2018 00:10:00 14.8 C 95 % 14.01 C
580 23-05-2018 00:15:00 14.8 C 95 % 14.01 C
581 23-05-2018 00:20:00 14.8 C 95 % 14.01 C
582 23-05-2018 00:25:00 14.8 C 95 % 14.01 C
583 23-05-2018 00:30:00 14.8 C 95 % 14.01 C
584 23-05-2018 00:35:00 14.8 C 95 % 14.01 C
585 23-05-2018 00:40:00 14.7 C 95 % 13.91 C
586 23-05-2018 00:45:00 14.7 C 95 % 13.91 C
587 23-05-2018 00:50:00 14.7 C 95 % 13.91 C
588 23-05-2018 00:55:00 14.6 C 95 % 13.81 C
589 23-05-2018 01:00:00 14.6 C 95 % 13.81 C
590 23-05-2018 01:05:00 14.6 C 95 % 13.81 C
591 23-05-2018 01:10:00 14.6 C 95 % 13.81 C
592 23-05-2018 01:15:00 14.6 C 95 % 13.81 C
593 23-05-2018 01:20:00 14.6 C 95 % 13.81 C
594 23-05-2018 01:25:00 14.6 C 95 % 13.81 C
595 23-05-2018 01:30:00 14.6 C 95 % 13.81 C
596 23-05-2018 01:35:00 14.6 C 95 % 13.81 C
597 23-05-2018 01:40:00 14.6 C 95 % 13.81 C
598 23-05-2018 01:45:00 14.5 C 95 % 13.71 C
599 23-05-2018 01:50:00 14.5 C 95 % 13.71 C
600 23-05-2018 01:55:00 14.6 C 96 % 13.97 C
Sensor: Nr:Datum:Temp:Feuchte:Taupunkt:
Aussen-T/F 601 23-05-2018 02:00:00 14.6 C 96 % 13.97 C
602 23-05-2018 02:05:00 14.7 C 96 % 14.07 C
603 23-05-2018 02:10:00 14.6 C 96 % 13.97 C
604 23-05-2018 02:15:00 14.6 C 96 % 13.97 C
605 23-05-2018 02:20:00 14.6 C 96 % 13.97 C
606 23-05-2018 02:25:00 14.6 C 96 % 13.97 C
607 23-05-2018 02:30:00 14.6 C 96 % 13.97 C
608 23-05-2018 02:35:00 14.5 C 96 % 13.87 C
609 23-05-2018 02:40:00 14.5 C 96 % 13.87 C
610 23-05-2018 02:45:00 14.4 C 96 % 13.77 C
611 23-05-2018 02:50:00 14.4 C 96 % 13.77 C
612 23-05-2018 02:55:00 14.4 C 96 % 13.77 C
613 23-05-2018 03:00:00 14.4 C 96 % 13.77 C
614 23-05-2018 03:05:00 14.3 C 96 % 13.67 C
615 23-05-2018 03:10:00 14.3 C 96 % 13.67 C
616 23-05-2018 03:15:00 14.3 C 96 % 13.67 C
617 23-05-2018 03:20:00 14.3 C 96 % 13.67 C
618 23-05-2018 03:25:00 14.3 C 96 % 13.67 C
619 23-05-2018 03:30:00 14.3 C 96 % 13.67 C
620 23-05-2018 03:35:00 14.2 C 96 % 13.57 C
621 23-05-2018 03:40:00 14.2 C 96 % 13.57 C
622 23-05-2018 03:45:00 14.2 C 96 % 13.57 C
623 23-05-2018 03:50:00 14.2 C 96 % 13.57 C
624 23-05-2018 03:55:00 14.2 C 96 % 13.57 C
625 23-05-2018 04:00:00 14.2 C 96 % 13.57 C
Sensor: Nr:Datum:Temp:Feuchte:Taupunkt:
Aussen-T/F 626 23-05-2018 04:05:00 14.2 C 96 % 13.57 C
627 23-05-2018 04:10:00 14.2 C 96 % 13.57 C
628 23-05-2018 04:15:00 14.2 C 96 % 13.57 C
629 23-05-2018 04:20:00 14.2 C 96 % 13.57 C
630 23-05-2018 04:25:00 14.2 C 96 % 13.57 C
631 23-05-2018 04:30:00 14.2 C 96 % 13.57 C
632 23-05-2018 04:35:00 14.1 C 96 % 13.47 C
633 23-05-2018 04:40:00 14.1 C 96 % 13.47 C
634 23-05-2018 04:45:00 14.1 C 96 % 13.47 C
635 23-05-2018 04:50:00 14.1 C 96 % 13.47 C
636 23-05-2018 04:55:00 14.1 C 96 % 13.47 C
637 23-05-2018 05:00:00 14.1 C 96 % 13.47 C
638 23-05-2018 05:05:00 14.1 C 96 % 13.47 C
639 23-05-2018 05:10:00 14.1 C 96 % 13.47 C
640 23-05-2018 05:15:00 14.1 C 96 % 13.47 C
641 23-05-2018 05:20:00 14.1 C 96 % 13.47 C
642 23-05-2018 05:25:00 14.1 C 96 % 13.47 C
643 23-05-2018 05:30:00 14 C 96 % 13.37 C
644 23-05-2018 05:35:00 14 C 96 % 13.37 C
645 23-05-2018 05:40:00 14 C 96 % 13.37 C
646 23-05-2018 05:45:00 13.9 C 96 % 13.27 C
647 23-05-2018 05:50:00 13.9 C 96 % 13.27 C
648 23-05-2018 05:55:00 13.9 C 96 % 13.27 C
649 23-05-2018 06:00:00 13.9 C 96 % 13.27 C
650 23-05-2018 06:05:00 14 C 96 % 13.37 C
Sensor: Nr:Datum:Temp:Feuchte:Taupunkt:
Aussen-T/F 651 23-05-2018 06:10:00 14.1 C 96 % 13.47 C
652 23-05-2018 06:15:00 14.1 C 96 % 13.47 C
653 23-05-2018 06:20:00 14.1 C 96 % 13.47 C
654 23-05-2018 06:25:00 14.1 C 96 % 13.47 C
655 23-05-2018 06:30:00 14.1 C 96 % 13.47 C
656 23-05-2018 06:35:00 14.1 C 96 % 13.47 C
657 23-05-2018 06:40:00 14.1 C 96 % 13.47 C
658 23-05-2018 06:45:00 14.1 C 96 % 13.47 C
659 23-05-2018 06:50:00 14.2 C 96 % 13.57 C
660 23-05-2018 06:55:00 14.2 C 97 % 13.73 C
661 23-05-2018 07:00:00 14.2 C 97 % 13.73 C
662 23-05-2018 07:05:00 14.3 C 96 % 13.67 C
663 23-05-2018 07:10:00 14.3 C 97 % 13.83 C
664 23-05-2018 07:15:00 14.4 C 97 % 13.93 C
665 23-05-2018 07:20:00 14.6 C 97 % 14.13 C
666 23-05-2018 07:25:00 14.6 C 97 % 14.13 C
667 23-05-2018 07:30:00 14.7 C 97 % 14.23 C
668 23-05-2018 07:35:00 14.8 C 97 % 14.33 C
669 23-05-2018 07:40:00 14.9 C 97 % 14.43 C
670 23-05-2018 07:45:00 15 C 97 % 14.53 C
671 23-05-2018 07:50:00 15.1 C 97 % 14.63 C
672 23-05-2018 07:55:00 15.1 C 97 % 14.63 C
673 23-05-2018 08:00:00 15.2 C 97 % 14.73 C
674 23-05-2018 08:05:00 15.3 C 97 % 14.83 C
675 23-05-2018 08:10:00 15.3 C 97 % 14.83 C
Sensor: Nr:Datum:Temp:Feuchte:Taupunkt:
Aussen-T/F 676 23-05-2018 08:15:00 15.4 C 97 % 14.93 C
677 23-05-2018 08:20:00 15.4 C 97 % 14.93 C
678 23-05-2018 08:25:00 15.4 C 97 % 14.93 C
679 23-05-2018 08:30:00 15.4 C 96 % 14.77 C
680 23-05-2018 08:35:00 15.5 C 97 % 15.03 C
681 23-05-2018 08:40:00 15.6 C 97 % 15.13 C
682 23-05-2018 08:45:00 15.7 C 97 % 15.23 C
683 23-05-2018 08:50:00 15.8 C 97 % 15.32 C
684 23-05-2018 08:55:00 15.8 C 97 % 15.32 C
685 23-05-2018 09:00:00 15.8 C 96 % 15.16 C
686 23-05-2018 09:05:00 15.8 C 96 % 15.16 C
687 23-05-2018 09:10:00 15.8 C 96 % 15.16 C
688 23-05-2018 09:15:00 15.7 C 96 % 15.06 C
689 23-05-2018 09:20:00 15.7 C 96 % 15.06 C
690 23-05-2018 09:25:00 15.8 C 96 % 15.16 C
691 23-05-2018 09:30:00 15.8 C 96 % 15.16 C
692 23-05-2018 09:35:00 15.9 C 96 % 15.26 C
693 23-05-2018 09:40:00 15.9 C 96 % 15.26 C
694 23-05-2018 09:45:00 16 C 96 % 15.36 C
695 23-05-2018 09:50:00 16.1 C 96 % 15.46 C
696 23-05-2018 09:55:00 16.1 C 96 % 15.46 C
697 23-05-2018 10:00:00 16.1 C 95 % 15.3 C
698 23-05-2018 10:05:00 16.1 C 95 % 15.3 C
699 23-05-2018 10:10:00 16.1 C 95 % 15.3 C
700 23-05-2018 10:15:00 16.3 C 95 % 15.5 C
Sensor: Nr:Datum:Temp:Feuchte:Taupunkt:
Aussen-T/F 701 23-05-2018 10:20:00 16.3 C 95 % 15.5 C
702 23-05-2018 10:25:00 16.5 C 95 % 15.7 C
703 23-05-2018 10:30:00 16.6 C 95 % 15.8 C
704 23-05-2018 10:35:00 16.7 C 94 % 15.73 C
705 23-05-2018 10:40:00 16.7 C 94 % 15.73 C
706 23-05-2018 10:45:00 16.7 C 94 % 15.73 C
707 23-05-2018 10:50:00 16.7 C 94 % 15.73 C
708 23-05-2018 10:55:00 16.8 C 94 % 15.83 C
709 23-05-2018 11:00:00 16.8 C 93 % 15.66 C
710 23-05-2018 11:05:00 16.9 C 94 % 15.93 C
711 23-05-2018 11:10:00 17 C 94 % 16.03 C
712 23-05-2018 11:15:00 16.9 C 93 % 15.76 C
713 23-05-2018 11:20:00 17 C 93 % 15.86 C
714 23-05-2018 11:25:00 17.1 C 94 % 16.13 C
715 23-05-2018 11:30:00 17.1 C 93 % 15.96 C
716 23-05-2018 11:35:00 17.1 C 91 % 15.62 C
717 23-05-2018 11:40:00 17.1 C 90 % 15.45 C
718 23-05-2018 11:45:00 17.2 C 90 % 15.55 C
719 23-05-2018 11:50:00 17.2 C 89 % 15.37 C
720 23-05-2018 11:55:00 17.2 C 89 % 15.37 C
721 23-05-2018 12:00:00 17.2 C 87 % 15.02 C
722 23-05-2018 12:05:00 17.3 C 88 % 15.29 C
723 23-05-2018 12:10:00 17.3 C 88 % 15.29 C
724 23-05-2018 12:15:00 17.4 C 89 % 15.57 C
725 23-05-2018 12:20:00 17.5 C 89 % 15.67 C
Sensor: Nr:Datum:Temp:Feuchte:Taupunkt:
Aussen-T/F 726 23-05-2018 12:25:00 17.5 C 89 % 15.67 C
727 23-05-2018 12:30:00 17.5 C 88 % 15.49 C
728 23-05-2018 12:35:00 17.4 C 88 % 15.39 C
729 23-05-2018 12:40:00 17.4 C 89 % 15.57 C
730 23-05-2018 12:45:00 17.4 C 90 % 15.74 C
731 23-05-2018 12:50:00 17.3 C 90 % 15.64 C
732 23-05-2018 12:55:00 17.3 C 90 % 15.64 C
733 23-05-2018 13:00:00 17.2 C 90 % 15.55 C
734 23-05-2018 13:05:00 17.1 C 91 % 15.62 C
735 23-05-2018 13:10:00 17.1 C 91 % 15.62 C
736 23-05-2018 13:15:00 17.1 C 92 % 15.79 C
737 23-05-2018 13:20:00 17.1 C 91 % 15.62 C
738 23-05-2018 13:25:00 17.1 C 92 % 15.79 C
739 23-05-2018 13:30:00 17.1 C 92 % 15.79 C
740 23-05-2018 13:35:00 17.1 C 92 % 15.79 C
741 23-05-2018 13:40:00 17 C 91 % 15.52 C
742 23-05-2018 13:45:00 17.1 C 91 % 15.62 C
743 23-05-2018 13:50:00 17.2 C 92 % 15.89 C
744 23-05-2018 13:55:00 17.2 C 90 % 15.55 C
745 23-05-2018 14:00:00 17.3 C 90 % 15.64 C
746 23-05-2018 14:05:00 17.3 C 90 % 15.64 C
747 23-05-2018 14:10:00 17.3 C 90 % 15.64 C
748 23-05-2018 14:15:00 17.3 C 89 % 15.47 C
749 23-05-2018 14:20:00 17.6 C 90 % 15.94 C
750 23-05-2018 14:25:00 17.8 C 90 % 16.14 C
Sensor: Nr:Datum:Temp:Feuchte:Taupunkt:
Aussen-T/F 751 23-05-2018 14:30:00 18.1 C 89 % 16.26 C
752 23-05-2018 14:35:00 18.1 C 86 % 15.72 C
753 23-05-2018 14:40:00 18.2 C 86 % 15.82 C
754 23-05-2018 14:45:00 18.4 C 87 % 16.2 C
755 23-05-2018 14:50:00 18.4 C 85 % 15.83 C
756 23-05-2018 14:55:00 18.5 C 86 % 16.11 C
757 23-05-2018 15:00:00 18.7 C 88 % 16.67 C
758 23-05-2018 15:05:00 18.8 C 84 % 16.04 C
759 23-05-2018 15:10:00 18.9 C 86 % 16.51 C
760 23-05-2018 15:15:00 19.1 C 87 % 16.89 C
761 23-05-2018 15:20:00 19.2 C 85 % 16.62 C
762 23-05-2018 15:25:00 19.4 C 85 % 16.81 C
763 23-05-2018 15:30:00 19.7 C 84 % 16.92 C
764 23-05-2018 15:35:00 20.1 C 83 % 17.12 C
765 23-05-2018 15:40:00 20.4 C 83 % 17.42 C
766 23-05-2018 15:45:00 20.8 C 80 % 17.22 C
767 23-05-2018 15:50:00 21.3 C 80 % 17.71 C
768 23-05-2018 15:55:00 21.7 C 81 % 18.3 C
769 23-05-2018 16:00:00 22 C 77 % 17.78 C
770 23-05-2018 16:05:00 22.3 C 77 % 18.07 C
771 23-05-2018 16:10:00 22.3 C 76 % 17.86 C
772 23-05-2018 16:15:00 22.6 C 78 % 18.57 C
773 23-05-2018 16:20:00 22.7 C 75 % 18.04 C
774 23-05-2018 16:25:00 22.9 C 75 % 18.23 C
775 23-05-2018 16:30:00 23.2 C 75 % 18.52 C
Sensor: Nr:Datum:Temp:Feuchte:Taupunkt:
Aussen-T/F 776 23-05-2018 16:35:00 23.4 C 76 % 18.93 C
777 23-05-2018 16:40:00 23.7 C 74 % 18.79 C
778 23-05-2018 16:45:00 23.9 C 75 % 19.2 C
779 23-05-2018 16:50:00 24.1 C 72 % 18.73 C
780 23-05-2018 16:55:00 24.3 C 72 % 18.93 C
781 23-05-2018 17:00:00 24.4 C 70 % 18.57 C
782 23-05-2018 17:05:00 24.7 C 72 % 19.31 C
783 23-05-2018 17:10:00 24.9 C 70 % 19.05 C
784 23-05-2018 17:15:00 25.2 C 69 % 19.11 C
785 23-05-2018 17:20:00 25.3 C 67 % 18.73 C
786 23-05-2018 17:25:00 25.1 C 70 % 19.24 C
787 23-05-2018 17:30:00 24.9 C 75 % 20.16 C
788 23-05-2018 17:35:00 24.8 C 73 % 19.63 C
789 23-05-2018 17:40:00 25 C 70 % 19.15 C
790 23-05-2018 17:45:00 25.3 C 67 % 18.73 C
791 23-05-2018 17:50:00 25.5 C 65 % 18.44 C
792 23-05-2018 17:55:00 25.7 C 65 % 18.62 C
793 23-05-2018 18:00:00 25.7 C 65 % 18.62 C
794 23-05-2018 18:05:00 25.7 C 67 % 19.11 C
795 23-05-2018 18:10:00 25.8 C 63 % 18.22 C
796 23-05-2018 18:15:00 26.1 C 65 % 19 C
797 23-05-2018 18:20:00 26.2 C 55 % 16.45 C
798 23-05-2018 18:25:00 26.1 C 56 % 16.64 C
799 23-05-2018 18:30:00 25.6 C 62 % 17.78 C
800 23-05-2018 18:35:00 25.2 C 68 % 18.87 C
Sensor: Nr:Datum:Temp:Feuchte:Taupunkt:
Aussen-T/F 801 23-05-2018 18:40:00 24.7 C 71 % 19.09 C
802 23-05-2018 18:45:00 24.1 C 71 % 18.51 C
803 23-05-2018 18:50:00 23.5 C 72 % 18.16 C
804 23-05-2018 18:55:00 23.1 C 73 % 17.99 C
805 23-05-2018 19:00:00 22.6 C 75 % 17.94 C
806 23-05-2018 19:05:00 22.1 C 75 % 17.46 C
807 23-05-2018 19:10:00 21.7 C 75 % 17.07 C
808 23-05-2018 19:15:00 21.3 C 76 % 16.9 C
809 23-05-2018 19:20:00 21 C 76 % 16.61 C
810 23-05-2018 19:25:00 20.7 C 77 % 16.52 C
811 23-05-2018 19:30:00 20.3 C 78 % 16.34 C
812 23-05-2018 19:35:00 20.1 C 79 % 16.34 C
813 23-05-2018 19:40:00 19.8 C 78 % 15.85 C
814 23-05-2018 19:45:00 19.7 C 79 % 15.96 C
815 23-05-2018 19:50:00 19.5 C 79 % 15.76 C
816 23-05-2018 19:55:00 19.3 C 79 % 15.57 C
817 23-05-2018 20:00:00 19.2 C 79 % 15.47 C
818 23-05-2018 20:05:00 19.2 C 80 % 15.67 C
819 23-05-2018 20:10:00 19.1 C 80 % 15.57 C
820 23-05-2018 20:15:00 19 C 81 % 15.67 C
821 23-05-2018 20:20:00 18.9 C 81 % 15.57 C
822 23-05-2018 20:25:00 18.8 C 81 % 15.47 C
823 23-05-2018 20:30:00 18.8 C 82 % 15.66 C
824 23-05-2018 20:35:00 18.7 C 82 % 15.57 C
825 23-05-2018 20:40:00 18.6 C 82 % 15.47 C
Sensor: Nr:Datum:Temp:Feuchte:Taupunkt:
Aussen-T/F 826 23-05-2018 20:45:00 18.5 C 82 % 15.37 C
827 23-05-2018 20:50:00 18.4 C 82 % 15.27 C
828 23-05-2018 20:55:00 18.3 C 82 % 15.17 C
829 23-05-2018 21:00:00 18.3 C 82 % 15.17 C
830 23-05-2018 21:05:00 18.2 C 83 % 15.27 C
831 23-05-2018 21:10:00 18.1 C 83 % 15.17 C
832 23-05-2018 21:15:00 18 C 84 % 15.26 C
833 23-05-2018 21:20:00 17.9 C 83 % 14.97 C
834 23-05-2018 21:25:00 17.8 C 83 % 14.88 C
835 23-05-2018 21:30:00 17.7 C 84 % 14.96 C
836 23-05-2018 21:35:00 17.6 C 84 % 14.87 C
837 23-05-2018 21:40:00 17.5 C 84 % 14.77 C
838 23-05-2018 21:45:00 17.4 C 84 % 14.67 C
839 23-05-2018 21:50:00 17.3 C 84 % 14.57 C
840 23-05-2018 21:55:00 17.3 C 84 % 14.57 C
841 23-05-2018 22:00:00 17.2 C 84 % 14.47 C
842 23-05-2018 22:05:00 17.1 C 84 % 14.38 C
843 23-05-2018 22:10:00 17.1 C 84 % 14.38 C
844 23-05-2018 22:15:00 17 C 85 % 14.46 C
845 23-05-2018 22:20:00 16.9 C 86 % 14.54 C
846 23-05-2018 22:25:00 16.9 C 86 % 14.54 C
847 23-05-2018 22:30:00 16.8 C 85 % 14.26 C
848 23-05-2018 22:35:00 16.7 C 85 % 14.17 C
849 23-05-2018 22:40:00 16.6 C 86 % 14.25 C
850 23-05-2018 22:45:00 16.6 C 86 % 14.25 C
Sensor: Nr:Datum:Temp:Feuchte:Taupunkt:
Aussen-T/F 851 23-05-2018 22:50:00 16.4 C 86 % 14.05 C
852 23-05-2018 22:55:00 16.3 C 86 % 13.95 C
853 23-05-2018 23:00:00 16.3 C 87 % 14.13 C
854 23-05-2018 23:05:00 16.1 C 87 % 13.94 C
855 23-05-2018 23:10:00 16.1 C 87 % 13.94 C
856 23-05-2018 23:15:00 15.9 C 88 % 13.92 C
857 23-05-2018 23:20:00 15.9 C 88 % 13.92 C
858 23-05-2018 23:25:00 15.8 C 89 % 13.99 C
859 23-05-2018 23:30:00 15.7 C 89 % 13.89 C
860 23-05-2018 23:35:00 15.7 C 89 % 13.89 C
861 23-05-2018 23:40:00 15.6 C 89 % 13.79 C
862 23-05-2018 23:45:00 15.4 C 89 % 13.6 C
863 23-05-2018 23:50:00 15.3 C 89 % 13.5 C
864 23-05-2018 23:55:00 15.2 C 90 % 13.57 C
865 24-05-2018 00:00:00 15.1 C 90 % 13.47 C
866 24-05-2018 00:05:00 15 C 90 % 13.37 C
867 24-05-2018 00:10:00 14.9 C 90 % 13.28 C
868 24-05-2018 00:15:00 14.9 C 90 % 13.28 C
869 24-05-2018 00:20:00 14.8 C 91 % 13.35 C
870 24-05-2018 00:25:00 14.7 C 91 % 13.25 C
871 24-05-2018 00:30:00 14.6 C 91 % 13.15 C
872 24-05-2018 00:35:00 14.5 C 91 % 13.05 C
873 24-05-2018 00:40:00 14.5 C 91 % 13.05 C
874 24-05-2018 00:45:00 14.4 C 91 % 12.95 C
875 24-05-2018 00:50:00 14.4 C 92 % 13.12 C
Sensor: Nr:Datum:Temp:Feuchte:Taupunkt:
Aussen-T/F 876 24-05-2018 00:55:00 14.4 C 92 % 13.12 C
877 24-05-2018 01:00:00 14.4 C 92 % 13.12 C
878 24-05-2018 01:05:00 14.5 C 92 % 13.22 C
879 24-05-2018 01:10:00 14.6 C 92 % 13.32 C
880 24-05-2018 01:15:00 14.6 C 93 % 13.48 C
881 24-05-2018 01:20:00 14.7 C 93 % 13.58 C
882 24-05-2018 01:25:00 14.7 C 93 % 13.58 C
883 24-05-2018 01:30:00 14.8 C 93 % 13.68 C
884 24-05-2018 01:35:00 14.8 C 93 % 13.68 C
885 24-05-2018 01:40:00 14.8 C 93 % 13.68 C
886 24-05-2018 01:45:00 14.8 C 93 % 13.68 C
887 24-05-2018 01:50:00 14.8 C 92 % 13.51 C
888 24-05-2018 01:55:00 14.8 C 92 % 13.51 C
889 24-05-2018 02:00:00 14.8 C 92 % 13.51 C
890 24-05-2018 02:05:00 14.7 C 92 % 13.41 C
891 24-05-2018 02:10:00 14.7 C 93 % 13.58 C
892 24-05-2018 02:15:00 14.7 C 93 % 13.58 C
893 24-05-2018 02:20:00 14.7 C 93 % 13.58 C
894 24-05-2018 02:25:00 14.7 C 93 % 13.58 C
895 24-05-2018 02:30:00 14.7 C 93 % 13.58 C
896 24-05-2018 02:35:00 14.6 C 93 % 13.48 C
897 24-05-2018 02:40:00 14.6 C 93 % 13.48 C
898 24-05-2018 02:45:00 14.5 C 93 % 13.38 C
899 24-05-2018 02:50:00 14.4 C 92 % 13.12 C
900 24-05-2018 02:55:00 14.3 C 93 % 13.18 C
Sensor: Nr:Datum:Temp:Feuchte:Taupunkt:
Aussen-T/F 901 24-05-2018 03:00:00 14.2 C 93 % 13.08 C
902 24-05-2018 03:05:00 14.1 C 93 % 12.99 C
903 24-05-2018 03:10:00 13.9 C 93 % 12.79 C
904 24-05-2018 03:15:00 13.8 C 93 % 12.69 C
905 24-05-2018 03:20:00 13.8 C 93 % 12.69 C
906 24-05-2018 03:25:00 13.7 C 93 % 12.59 C
907 24-05-2018 03:30:00 13.6 C 93 % 12.49 C
908 24-05-2018 03:35:00 13.5 C 93 % 12.39 C
909 24-05-2018 03:40:00 13.4 C 93 % 12.29 C
910 24-05-2018 03:45:00 13.4 C 94 % 12.45 C
911 24-05-2018 03:50:00 13.3 C 94 % 12.36 C
912 24-05-2018 03:55:00 13.3 C 94 % 12.36 C
913 24-05-2018 04:00:00 13.3 C 94 % 12.36 C
914 24-05-2018 04:05:00 13.3 C 94 % 12.36 C
915 24-05-2018 04:10:00 13.3 C 94 % 12.36 C
916 24-05-2018 04:15:00 13.3 C 94 % 12.36 C
917 24-05-2018 04:20:00 13.2 C 94 % 12.26 C
918 24-05-2018 04:25:00 13.2 C 94 % 12.26 C
919 24-05-2018 04:30:00 13.3 C 95 % 12.52 C
920 24-05-2018 04:35:00 13.4 C 95 % 12.62 C
921 24-05-2018 04:40:00 13.5 C 95 % 12.72 C
922 24-05-2018 04:45:00 13.6 C 95 % 12.81 C
923 24-05-2018 04:50:00 13.7 C 95 % 12.91 C
924 24-05-2018 04:55:00 13.7 C 95 % 12.91 C
925 24-05-2018 05:00:00 13.8 C 95 % 13.01 C
Sensor: Nr:Datum:Temp:Feuchte:Taupunkt:
Aussen-T/F 926 24-05-2018 05:05:00 13.8 C 95 % 13.01 C
927 24-05-2018 05:10:00 13.8 C 95 % 13.01 C
928 24-05-2018 05:15:00 13.8 C 95 % 13.01 C
929 24-05-2018 05:20:00 13.8 C 95 % 13.01 C
930 24-05-2018 05:25:00 13.8 C 95 % 13.01 C
931 24-05-2018 05:30:00 13.8 C 95 % 13.01 C
932 24-05-2018 05:35:00 13.8 C 95 % 13.01 C
933 24-05-2018 05:40:00 13.8 C 95 % 13.01 C
934 24-05-2018 05:45:00 13.8 C 95 % 13.01 C
935 24-05-2018 05:50:00 13.8 C 95 % 13.01 C
936 24-05-2018 05:55:00 13.8 C 95 % 13.01 C
937 24-05-2018 06:00:00 13.8 C 95 % 13.01 C
938 24-05-2018 06:05:00 13.8 C 95 % 13.01 C
939 24-05-2018 06:10:00 13.7 C 95 % 12.91 C
940 24-05-2018 06:15:00 13.6 C 95 % 12.81 C
941 24-05-2018 06:20:00 13.6 C 95 % 12.81 C
942 24-05-2018 06:25:00 13.5 C 95 % 12.72 C
943 24-05-2018 06:30:00 13.4 C 95 % 12.62 C
944 24-05-2018 06:35:00 13.3 C 95 % 12.52 C
945 24-05-2018 06:40:00 13.3 C 95 % 12.52 C
946 24-05-2018 06:45:00 13.3 C 95 % 12.52 C
947 24-05-2018 06:50:00 13.3 C 95 % 12.52 C
948 24-05-2018 06:55:00 13.3 C 95 % 12.52 C
949 24-05-2018 07:00:00 13.3 C 95 % 12.52 C
950 24-05-2018 07:05:00 13.3 C 95 % 12.52 C
Sensor: Nr:Datum:Temp:Feuchte:Taupunkt:
Aussen-T/F 951 24-05-2018 07:10:00 13.3 C 95 % 12.52 C
952 24-05-2018 07:15:00 13.4 C 96 % 12.78 C
953 24-05-2018 07:20:00 13.6 C 95 % 12.81 C
954 24-05-2018 07:25:00 13.6 C 95 % 12.81 C
955 24-05-2018 07:30:00 13.7 C 96 % 13.07 C
956 24-05-2018 07:35:00 13.8 C 96 % 13.17 C
957 24-05-2018 07:40:00 13.8 C 96 % 13.17 C
958 24-05-2018 07:45:00 13.9 C 96 % 13.27 C
959 24-05-2018 07:50:00 14 C 96 % 13.37 C
960 24-05-2018 07:55:00 14.1 C 96 % 13.47 C
961 24-05-2018 08:00:00 14.2 C 96 % 13.57 C
962 24-05-2018 08:05:00 14.3 C 96 % 13.67 C
963 24-05-2018 08:10:00 14.4 C 96 % 13.77 C
964 24-05-2018 08:15:00 14.6 C 96 % 13.97 C
965 24-05-2018 08:20:00 14.7 C 96 % 14.07 C
966 24-05-2018 08:25:00 14.8 C 96 % 14.17 C
967 24-05-2018 08:30:00 14.9 C 96 % 14.27 C
968 24-05-2018 08:35:00 15 C 95 % 14.21 C
969 24-05-2018 08:40:00 15.1 C 96 % 14.47 C
970 24-05-2018 08:45:00 15.2 C 95 % 14.4 C
971 24-05-2018 08:50:00 15.3 C 95 % 14.5 C
972 24-05-2018 08:55:00 15.4 C 95 % 14.6 C
973 24-05-2018 09:00:00 15.5 C 95 % 14.7 C
974 24-05-2018 09:05:00 15.7 C 95 % 14.9 C
975 24-05-2018 09:10:00 15.8 C 95 % 15 C
Sensor: Nr:Datum:Temp:Feuchte:Taupunkt:
Aussen-T/F 976 24-05-2018 09:15:00 15.9 C 95 % 15.1 C
977 24-05-2018 09:20:00 16.1 C 94 % 15.13 C
978 24-05-2018 09:25:00 16.3 C 93 % 15.17 C
979 24-05-2018 09:30:00 16.5 C 91 % 15.03 C
980 24-05-2018 09:35:00 16.8 C 90 % 15.15 C
981 24-05-2018 09:40:00 17 C 88 % 15 C
982 24-05-2018 09:45:00 17.2 C 87 % 15.02 C
983 24-05-2018 09:50:00 17.3 C 87 % 15.12 C
984 24-05-2018 09:55:00 17.5 C 87 % 15.31 C
985 24-05-2018 10:00:00 17.6 C 87 % 15.41 C
986 24-05-2018 10:05:00 17.7 C 86 % 15.33 C
987 24-05-2018 10:10:00 17.7 C 85 % 15.15 C
988 24-05-2018 10:15:00 17.8 C 84 % 15.06 C
989 24-05-2018 10:20:00 18 C 84 % 15.26 C
990 24-05-2018 10:25:00 18.2 C 83 % 15.27 C
991 24-05-2018 10:30:00 18.4 C 83 % 15.46 C
992 24-05-2018 10:35:00 18.6 C 82 % 15.47 C
993 24-05-2018 10:40:00 18.8 C 81 % 15.47 C
994 24-05-2018 10:45:00 18.9 C 82 % 15.76 C
995 24-05-2018 10:50:00 19.1 C 81 % 15.76 C
996 24-05-2018 10:55:00 19.2 C 82 % 16.05 C
997 24-05-2018 11:00:00 19.4 C 80 % 15.86 C
998 24-05-2018 11:05:00 19.6 C 81 % 16.25 C
999 24-05-2018 11:10:00 19.7 C 80 % 16.15 C
1000 24-05-2018 11:15:00 19.8 C 78 % 15.85 C
Sensor: Nr:Datum:Temp:Feuchte:Taupunkt:
Aussen-T/F 1001 24-05-2018 11:20:00 19.8 C 79 % 16.05 C
1002 24-05-2018 11:25:00 19.8 C 79 % 16.05 C
1003 24-05-2018 11:30:00 19.8 C 79 % 16.05 C
1004 24-05-2018 11:35:00 19.7 C 79 % 15.96 C
1005 24-05-2018 11:40:00 19.8 C 80 % 16.25 C
1006 24-05-2018 11:45:00 19.8 C 79 % 16.05 C
1007 24-05-2018 11:50:00 19.8 C 80 % 16.25 C
1008 24-05-2018 11:55:00 19.9 C 80 % 16.35 C
1009 24-05-2018 12:00:00 19.9 C 79 % 16.15 C
1010 24-05-2018 12:05:00 20.1 C 79 % 16.34 C
1011 24-05-2018 12:10:00 20.1 C 79 % 16.34 C
1012 24-05-2018 12:15:00 20.1 C 79 % 16.34 C
1013 24-05-2018 12:20:00 20.1 C 79 % 16.34 C
1014 24-05-2018 12:25:00 19.9 C 80 % 16.35 C
1015 24-05-2018 12:30:00 19.7 C 80 % 16.15 C
1016 24-05-2018 12:35:00 19.5 C 81 % 16.15 C
1017 24-05-2018 12:40:00 19.3 C 80 % 15.76 C
1018 24-05-2018 12:45:00 19.2 C 81 % 15.86 C
1019 24-05-2018 12:50:00 19.1 C 81 % 15.76 C
1020 24-05-2018 12:55:00 19 C 81 % 15.67 C
1021 24-05-2018 13:00:00 19.1 C 82 % 15.96 C
1022 24-05-2018 13:05:00 19.1 C 82 % 15.96 C
1023 24-05-2018 13:10:00 19.2 C 83 % 16.24 C
1024 24-05-2018 13:15:00 19.2 C 82 % 16.05 C
1025 24-05-2018 13:20:00 19.2 C 83 % 16.24 C
Sensor: Nr:Datum:Temp:Feuchte:Taupunkt:
Aussen-T/F 1026 24-05-2018 13:25:00 19.2 C 82 % 16.05 C
1027 24-05-2018 13:30:00 19.2 C 82 % 16.05 C
1028 24-05-2018 13:35:00 19.1 C 82 % 15.96 C
1029 24-05-2018 13:40:00 19.1 C 82 % 15.96 C
1030 24-05-2018 13:45:00 19.1 C 84 % 16.33 C
1031 24-05-2018 13:50:00 19.1 C 83 % 16.15 C
1032 24-05-2018 13:55:00 19.1 C 84 % 16.33 C
1033 24-05-2018 14:00:00 19.1 C 83 % 16.15 C
1034 24-05-2018 14:05:00 19 C 83 % 16.05 C
1035 24-05-2018 14:10:00 19 C 83 % 16.05 C
1036 24-05-2018 14:15:00 19.1 C 82 % 15.96 C
1037 24-05-2018 14:20:00 19.1 C 83 % 16.15 C
1038 24-05-2018 14:25:00 19.2 C 83 % 16.24 C
1039 24-05-2018 14:30:00 19.3 C 82 % 16.15 C
1040 24-05-2018 14:35:00 19.4 C 82 % 16.25 C
1041 24-05-2018 14:40:00 19.5 C 82 % 16.35 C
1042 24-05-2018 14:45:00 19.7 C 82 % 16.54 C
1043 24-05-2018 14:50:00 19.8 C 80 % 16.25 C
1044 24-05-2018 14:55:00 19.8 C 81 % 16.45 C
1045 24-05-2018 15:00:00 19.8 C 81 % 16.45 C
1046 24-05-2018 15:05:00 19.8 C 81 % 16.45 C
1047 24-05-2018 15:10:00 19.8 C 81 % 16.45 C
1048 24-05-2018 15:15:00 19.8 C 81 % 16.45 C
1049 24-05-2018 15:20:00 19.8 C 81 % 16.45 C
1050 24-05-2018 15:25:00 19.9 C 82 % 16.74 C
Sensor: Nr:Datum:Temp:Feuchte:Taupunkt:
Aussen-T/F 1051 24-05-2018 15:30:00 19.9 C 82 % 16.74 C
1052 24-05-2018 15:35:00 19.9 C 81 % 16.54 C
1053 24-05-2018 15:40:00 19.9 C 82 % 16.74 C
1054 24-05-2018 15:45:00 20 C 82 % 16.83 C
1055 24-05-2018 15:50:00 20 C 81 % 16.64 C
1056 24-05-2018 15:55:00 20 C 82 % 16.83 C
1057 24-05-2018 16:00:00 20.1 C 83 % 17.12 C
1058 24-05-2018 16:05:00 20.2 C 83 % 17.22 C
1059 24-05-2018 16:10:00 20.2 C 83 % 17.22 C
1060 24-05-2018 16:15:00 20.3 C 81 % 16.93 C
1061 24-05-2018 16:20:00 20.4 C 81 % 17.03 C
1062 24-05-2018 16:25:00 20.6 C 80 % 17.03 C
1063 24-05-2018 16:30:00 20.7 C 80 % 17.13 C
1064 24-05-2018 16:35:00 20.7 C 80 % 17.13 C
1065 24-05-2018 16:40:00 20.8 C 80 % 17.22 C
1066 24-05-2018 16:45:00 20.8 C 80 % 17.22 C
1067 24-05-2018 16:50:00 20.8 C 80 % 17.22 C
1068 24-05-2018 16:55:00 20.9 C 80 % 17.32 C
1069 24-05-2018 17:00:00 20.9 C 78 % 16.92 C
1070 24-05-2018 17:05:00 21.1 C 80 % 17.51 C
1071 24-05-2018 17:10:00 21.1 C 78 % 17.11 C
1072 24-05-2018 17:15:00 21.2 C 78 % 17.21 C
1073 24-05-2018 17:20:00 21.2 C 78 % 17.21 C
1074 24-05-2018 17:25:00 21.4 C 77 % 17.2 C
1075 24-05-2018 17:30:00 21.4 C 77 % 17.2 C
Sensor: Nr:Datum:Temp:Feuchte:Taupunkt:
Aussen-T/F 1076 24-05-2018 17:35:00 21.4 C 76 % 16.99 C
1077 24-05-2018 17:40:00 21.3 C 76 % 16.9 C
1078 24-05-2018 17:45:00 21.3 C 77 % 17.1 C
1079 24-05-2018 17:50:00 21.2 C 77 % 17.01 C
1080 24-05-2018 17:55:00 21.2 C 77 % 17.01 C
1081 24-05-2018 18:00:00 21.1 C 77 % 16.91 C
1082 24-05-2018 18:05:00 21.2 C 78 % 17.21 C
1083 24-05-2018 18:10:00 21.2 C 78 % 17.21 C
1084 24-05-2018 18:15:00 21.2 C 77 % 17.01 C
1085 24-05-2018 18:20:00 21.1 C 78 % 17.11 C
1086 24-05-2018 18:25:00 21.1 C 79 % 17.32 C
1087 24-05-2018 18:30:00 21 C 79 % 17.22 C
1088 24-05-2018 18:35:00 20.9 C 79 % 17.12 C
1089 24-05-2018 18:40:00 20.8 C 79 % 17.02 C
1090 24-05-2018 18:45:00 20.8 C 82 % 17.61 C
1091 24-05-2018 18:50:00 20.7 C 80 % 17.13 C
1092 24-05-2018 18:55:00 20.6 C 83 % 17.61 C
1093 24-05-2018 19:00:00 20.6 C 84 % 17.8 C
1094 24-05-2018 19:05:00 20.6 C 84 % 17.8 C
1095 24-05-2018 19:10:00 20.6 C 85 % 17.99 C
1096 24-05-2018 19:15:00 20.5 C 85 % 17.89 C
1097 24-05-2018 19:20:00 20.4 C 85 % 17.79 C
1098 24-05-2018 19:25:00 20.3 C 85 % 17.7 C
1099 24-05-2018 19:30:00 20.3 C 85 % 17.7 C
1100 24-05-2018 19:35:00 20.2 C 85 % 17.6 C
Sensor: Nr:Datum:Temp:Feuchte:Taupunkt:
Aussen-T/F 1101 24-05-2018 19:40:00 20.1 C 85 % 17.5 C
1102 24-05-2018 19:45:00 20 C 86 % 17.59 C
1103 24-05-2018 19:50:00 19.9 C 86 % 17.49 C
1104 24-05-2018 19:55:00 19.8 C 86 % 17.39 C
1105 24-05-2018 20:00:00 19.8 C 86 % 17.39 C
1106 24-05-2018 20:05:00 19.7 C 86 % 17.29 C
1107 24-05-2018 20:10:00 19.6 C 86 % 17.19 C
1108 24-05-2018 20:15:00 19.4 C 86 % 17 C
1109 24-05-2018 20:20:00 19.3 C 86 % 16.9 C
1110 24-05-2018 20:25:00 19.1 C 86 % 16.7 C
1111 24-05-2018 20:30:00 19 C 87 % 16.79 C
1112 24-05-2018 20:35:00 18.8 C 87 % 16.59 C
1113 24-05-2018 20:40:00 18.7 C 87 % 16.49 C
1114 24-05-2018 20:45:00 18.6 C 88 % 16.57 C
1115 24-05-2018 20:50:00 18.4 C 88 % 16.38 C
1116 24-05-2018 20:55:00 18.3 C 88 % 16.28 C
1117 24-05-2018 21:00:00 18.1 C 88 % 16.08 C
1118 24-05-2018 21:05:00 17.9 C 88 % 15.88 C
1119 24-05-2018 21:10:00 17.7 C 89 % 15.86 C
1120 24-05-2018 21:15:00 17.6 C 89 % 15.77 C
1121 24-05-2018 21:20:00 17.5 C 89 % 15.67 C
1122 24-05-2018 21:25:00 17.4 C 89 % 15.57 C
1123 24-05-2018 21:30:00 17.3 C 89 % 15.47 C
1124 24-05-2018 21:35:00 17.2 C 90 % 15.55 C
1125 24-05-2018 21:40:00 17.1 C 90 % 15.45 C
Sensor: Nr:Datum:Temp:Feuchte:Taupunkt:
Aussen-T/F 1126 24-05-2018 21:45:00 17 C 90 % 15.35 C
1127 24-05-2018 21:50:00 16.9 C 90 % 15.25 C
1128 24-05-2018 21:55:00 16.8 C 91 % 15.32 C
1129 24-05-2018 22:00:00 16.7 C 91 % 15.22 C
1130 24-05-2018 22:05:00 16.7 C 91 % 15.22 C
1131 24-05-2018 22:10:00 16.6 C 91 % 15.13 C
1132 24-05-2018 22:15:00 16.4 C 91 % 14.93 C
1133 24-05-2018 22:20:00 16.4 C 91 % 14.93 C
1134 24-05-2018 22:25:00 16.3 C 91 % 14.83 C
1135 24-05-2018 22:30:00 16.2 C 91 % 14.73 C
1136 24-05-2018 22:35:00 16.2 C 92 % 14.9 C
1137 24-05-2018 22:40:00 16.1 C 92 % 14.8 C
1138 24-05-2018 22:45:00 16.1 C 92 % 14.8 C
1139 24-05-2018 22:50:00 16 C 92 % 14.7 C
1140 24-05-2018 22:55:00 16 C 92 % 14.7 C
1141 24-05-2018 23:00:00 16 C 92 % 14.7 C
1142 24-05-2018 23:05:00 16 C 93 % 14.87 C
1143 24-05-2018 23:10:00 15.9 C 93 % 14.77 C
1144 24-05-2018 23:15:00 15.9 C 93 % 14.77 C
1145 24-05-2018 23:20:00 15.9 C 93 % 14.77 C
1146 24-05-2018 23:25:00 15.9 C 93 % 14.77 C
1147 24-05-2018 23:30:00 15.9 C 93 % 14.77 C
1148 24-05-2018 23:35:00 15.8 C 93 % 14.67 C
1149 24-05-2018 23:40:00 15.8 C 93 % 14.67 C
1150 24-05-2018 23:45:00 15.8 C 93 % 14.67 C
Sensor: Nr:Datum:Temp:Feuchte:Taupunkt:
Aussen-T/F 1151 24-05-2018 23:50:00 15.7 C 93 % 14.57 C
1152 24-05-2018 23:55:00 15.6 C 93 % 14.47 C
1153 25-05-2018 00:00:00 15.6 C 93 % 14.47 C
1154 25-05-2018 00:05:00 15.5 C 93 % 14.37 C
1155 25-05-2018 00:10:00 15.4 C 93 % 14.27 C
1156 25-05-2018 00:15:00 15.4 C 93 % 14.27 C
1157 25-05-2018 00:20:00 15.4 C 93 % 14.27 C
1158 25-05-2018 00:25:00 15.3 C 94 % 14.34 C
1159 25-05-2018 00:30:00 15.3 C 94 % 14.34 C
1160 25-05-2018 00:35:00 15.2 C 94 % 14.24 C
1161 25-05-2018 00:40:00 15.2 C 94 % 14.24 C
1162 25-05-2018 00:45:00 15.2 C 94 % 14.24 C
1163 25-05-2018 00:50:00 15.2 C 94 % 14.24 C
1164 25-05-2018 00:55:00 15.2 C 94 % 14.24 C
1165 25-05-2018 01:00:00 15.1 C 94 % 14.14 C
1166 25-05-2018 01:05:00 15.1 C 94 % 14.14 C
1167 25-05-2018 01:10:00 15.1 C 94 % 14.14 C
1168 25-05-2018 01:15:00 15 C 94 % 14.04 C
1169 25-05-2018 01:20:00 14.9 C 94 % 13.94 C
1170 25-05-2018 01:25:00 14.7 C 94 % 13.74 C
1171 25-05-2018 01:30:00 14.7 C 94 % 13.74 C
1172 25-05-2018 01:35:00 14.7 C 95 % 13.91 C
1173 25-05-2018 01:40:00 14.6 C 95 % 13.81 C
1174 25-05-2018 01:45:00 14.6 C 95 % 13.81 C
1175 25-05-2018 01:50:00 14.6 C 95 % 13.81 C
Sensor: Nr:Datum:Temp:Feuchte:Taupunkt:
Aussen-T/F 1176 25-05-2018 01:55:00 14.5 C 95 % 13.71 C
1177 25-05-2018 02:00:00 14.5 C 95 % 13.71 C
1178 25-05-2018 02:05:00 14.4 C 95 % 13.61 C
1179 25-05-2018 02:10:00 14.4 C 95 % 13.61 C
1180 25-05-2018 02:15:00 14.5 C 95 % 13.71 C
1181 25-05-2018 02:20:00 14.6 C 95 % 13.81 C
1182 25-05-2018 02:25:00 14.7 C 95 % 13.91 C
1183 25-05-2018 02:30:00 14.7 C 96 % 14.07 C
1184 25-05-2018 02:35:00 14.9 C 96 % 14.27 C
1185 25-05-2018 02:40:00 15 C 96 % 14.37 C
1186 25-05-2018 02:45:00 15 C 96 % 14.37 C
1187 25-05-2018 02:50:00 15.1 C 96 % 14.47 C
1188 25-05-2018 02:55:00 15.1 C 96 % 14.47 C
1189 25-05-2018 03:00:00 15.2 C 96 % 14.57 C
1190 25-05-2018 03:05:00 15.2 C 96 % 14.57 C
1191 25-05-2018 03:10:00 15.2 C 96 % 14.57 C
1192 25-05-2018 03:15:00 15.3 C 96 % 14.67 C
1193 25-05-2018 03:20:00 15.3 C 96 % 14.67 C
1194 25-05-2018 03:25:00 15.4 C 96 % 14.77 C
1195 25-05-2018 03:30:00 15.4 C 96 % 14.77 C
1196 25-05-2018 03:35:00 15.4 C 96 % 14.77 C
1197 25-05-2018 03:40:00 15.4 C 96 % 14.77 C
1198 25-05-2018 03:45:00 15.4 C 96 % 14.77 C
1199 25-05-2018 03:50:00 15.4 C 96 % 14.77 C
1200 25-05-2018 03:55:00 15.5 C 96 % 14.86 C
Sensor: Nr:Datum:Temp:Feuchte:Taupunkt:
Aussen-T/F 1201 25-05-2018 04:00:00 15.6 C 96 % 14.96 C
1202 25-05-2018 04:05:00 15.6 C 96 % 14.96 C
1203 25-05-2018 04:10:00 15.6 C 96 % 14.96 C
1204 25-05-2018 04:15:00 15.6 C 96 % 14.96 C
1205 25-05-2018 04:20:00 15.6 C 96 % 14.96 C
1206 25-05-2018 04:25:00 15.6 C 96 % 14.96 C
1207 25-05-2018 04:30:00 15.6 C 96 % 14.96 C
1208 25-05-2018 04:35:00 15.6 C 96 % 14.96 C
1209 25-05-2018 04:40:00 15.7 C 96 % 15.06 C
1210 25-05-2018 04:45:00 15.7 C 96 % 15.06 C
1211 25-05-2018 04:50:00 15.7 C 96 % 15.06 C
1212 25-05-2018 04:55:00 15.7 C 96 % 15.06 C
1213 25-05-2018 05:00:00 15.7 C 96 % 15.06 C
1214 25-05-2018 05:05:00 15.7 C 96 % 15.06 C
1215 25-05-2018 05:10:00 15.6 C 96 % 14.96 C
1216 25-05-2018 05:15:00 15.6 C 96 % 14.96 C
1217 25-05-2018 05:20:00 15.6 C 96 % 14.96 C
1218 25-05-2018 05:25:00 15.6 C 96 % 14.96 C
1219 25-05-2018 05:30:00 15.6 C 96 % 14.96 C
1220 25-05-2018 05:35:00 15.6 C 96 % 14.96 C
1221 25-05-2018 05:40:00 15.4 C 96 % 14.77 C
1222 25-05-2018 05:45:00 15.4 C 96 % 14.77 C
1223 25-05-2018 05:50:00 15.3 C 95 % 14.5 C
1224 25-05-2018 05:55:00 15.2 C 95 % 14.4 C
1225 25-05-2018 06:00:00 15.2 C 96 % 14.57 C
Sensor: Nr:Datum:Temp:Feuchte:Taupunkt:
Aussen-T/F 1226 25-05-2018 06:05:00 15.1 C 96 % 14.47 C
1227 25-05-2018 06:10:00 15.1 C 96 % 14.47 C
1228 25-05-2018 06:15:00 15.2 C 96 % 14.57 C
1229 25-05-2018 06:20:00 15.1 C 96 % 14.47 C
1230 25-05-2018 06:25:00 15.2 C 96 % 14.57 C
1231 25-05-2018 06:30:00 15.2 C 96 % 14.57 C
1232 25-05-2018 06:35:00 15.3 C 96 % 14.67 C
1233 25-05-2018 06:40:00 15.4 C 96 % 14.77 C
1234 25-05-2018 06:45:00 15.4 C 96 % 14.77 C
1235 25-05-2018 06:50:00 15.5 C 96 % 14.86 C
1236 25-05-2018 06:55:00 15.6 C 96 % 14.96 C
1237 25-05-2018 07:00:00 15.7 C 96 % 15.06 C
1238 25-05-2018 07:05:00 15.7 C 96 % 15.06 C
1239 25-05-2018 07:10:00 15.8 C 96 % 15.16 C
1240 25-05-2018 07:15:00 15.8 C 96 % 15.16 C
1241 25-05-2018 07:20:00 15.8 C 96 % 15.16 C
1242 25-05-2018 07:25:00 15.9 C 96 % 15.26 C
1243 25-05-2018 07:30:00 15.9 C 96 % 15.26 C
1244 25-05-2018 07:35:00 16 C 96 % 15.36 C
1245 25-05-2018 07:40:00 16 C 96 % 15.36 C
1246 25-05-2018 07:45:00 16.1 C 96 % 15.46 C
1247 25-05-2018 07:50:00 16.1 C 96 % 15.46 C
1248 25-05-2018 07:55:00 16.2 C 96 % 15.56 C
1249 25-05-2018 08:00:00 16.3 C 96 % 15.66 C
1250 25-05-2018 08:05:00 16.3 C 96 % 15.66 C
Sensor: Nr:Datum:Temp:Feuchte:Taupunkt:
Aussen-T/F 1251 25-05-2018 08:10:00 16.4 C 96 % 15.76 C
1252 25-05-2018 08:15:00 16.5 C 96 % 15.86 C
1253 25-05-2018 08:20:00 16.6 C 95 % 15.8 C
1254 25-05-2018 08:25:00 16.7 C 95 % 15.9 C
1255 25-05-2018 08:30:00 16.8 C 95 % 15.99 C
1256 25-05-2018 08:35:00 16.9 C 95 % 16.09 C
1257 25-05-2018 08:40:00 16.9 C 94 % 15.93 C
1258 25-05-2018 08:45:00 17 C 94 % 16.03 C
1259 25-05-2018 08:50:00 17.1 C 94 % 16.13 C
1260 25-05-2018 08:55:00 17.2 C 93 % 16.06 C
1261 25-05-2018 09:00:00 17.3 C 93 % 16.16 C
1262 25-05-2018 09:05:00 17.4 C 92 % 16.09 C
1263 25-05-2018 09:10:00 17.6 C 92 % 16.28 C
1264 25-05-2018 09:15:00 17.7 C 91 % 16.21 C
1265 25-05-2018 09:20:00 17.8 C 91 % 16.31 C
1266 25-05-2018 09:25:00 17.9 C 92 % 16.58 C
1267 25-05-2018 09:30:00 18.1 C 91 % 16.61 C
1268 25-05-2018 09:35:00 18.2 C 90 % 16.53 C
1269 25-05-2018 09:40:00 18.3 C 89 % 16.46 C
1270 25-05-2018 09:45:00 18.4 C 89 % 16.55 C
1271 25-05-2018 09:50:00 18.5 C 89 % 16.65 C
1272 25-05-2018 09:55:00 18.7 C 89 % 16.85 C
1273 25-05-2018 10:00:00 18.7 C 89 % 16.85 C
1274 25-05-2018 10:05:00 18.8 C 87 % 16.59 C
1275 25-05-2018 10:10:00 18.8 C 86 % 16.41 C
Sensor: Nr:Datum:Temp:Feuchte:Taupunkt:
Aussen-T/F 1276 25-05-2018 10:15:00 18.8 C 86 % 16.41 C
1277 25-05-2018 10:20:00 18.9 C 85 % 16.32 C
1278 25-05-2018 10:25:00 18.9 C 85 % 16.32 C
1279 25-05-2018 10:30:00 19 C 84 % 16.24 C
1280 25-05-2018 10:35:00 19 C 83 % 16.05 C
1281 25-05-2018 10:40:00 19.1 C 83 % 16.15 C
1282 25-05-2018 10:45:00 19.2 C 84 % 16.43 C
1283 25-05-2018 10:50:00 19.4 C 83 % 16.44 C
1284 25-05-2018 10:55:00 19.4 C 81 % 16.06 C
1285 25-05-2018 11:00:00 19.6 C 82 % 16.44 C
1286 25-05-2018 11:05:00 19.8 C 82 % 16.64 C
1287 25-05-2018 11:10:00 19.9 C 82 % 16.74 C
1288 25-05-2018 11:15:00 19.9 C 81 % 16.54 C
1289 25-05-2018 11:20:00 20 C 80 % 16.44 C
1290 25-05-2018 11:25:00 20.1 C 79 % 16.34 C
1291 25-05-2018 11:30:00 20.1 C 80 % 16.54 C
1292 25-05-2018 11:35:00 20.2 C 79 % 16.44 C
1293 25-05-2018 11:40:00 20.3 C 78 % 16.34 C
1294 25-05-2018 11:45:00 20.3 C 78 % 16.34 C
1295 25-05-2018 11:50:00 20.3 C 79 % 16.54 C
1296 25-05-2018 11:55:00 20.4 C 79 % 16.64 C
1297 25-05-2018 12:00:00 20.5 C 79 % 16.73 C
1298 25-05-2018 12:05:00 20.4 C 78 % 16.44 C
1299 25-05-2018 12:10:00 20.4 C 78 % 16.44 C
1300 25-05-2018 12:15:00 20.3 C 78 % 16.34 C
Sensor: Nr:Datum:Temp:Feuchte:Taupunkt:
Aussen-T/F 1301 25-05-2018 12:20:00 20.3 C 78 % 16.34 C
1302 25-05-2018 12:25:00 20.3 C 78 % 16.34 C
1303 25-05-2018 12:30:00 20.3 C 78 % 16.34 C
1304 25-05-2018 12:35:00 20.3 C 78 % 16.34 C
1305 25-05-2018 12:40:00 20.3 C 80 % 16.74 C
1306 25-05-2018 12:45:00 20.4 C 78 % 16.44 C
1307 25-05-2018 12:50:00 20.4 C 79 % 16.64 C
1308 25-05-2018 12:55:00 20.6 C 78 % 16.63 C
1309 25-05-2018 13:00:00 20.8 C 78 % 16.82 C
1310 25-05-2018 13:05:00 20.9 C 77 % 16.72 C
1311 25-05-2018 13:10:00 21.1 C 77 % 16.91 C
1312 25-05-2018 13:15:00 21.3 C 76 % 16.9 C
1313 25-05-2018 13:20:00 21.3 C 76 % 16.9 C
1314 25-05-2018 13:25:00 21.4 C 76 % 16.99 C
1315 25-05-2018 13:30:00 21.7 C 75 % 17.07 C
1316 25-05-2018 13:35:00 21.8 C 74 % 16.96 C
1317 25-05-2018 13:40:00 21.9 C 73 % 16.84 C
1318 25-05-2018 13:45:00 22.1 C 72 % 16.82 C
1319 25-05-2018 13:50:00 22.2 C 73 % 17.13 C
1320 25-05-2018 13:55:00 22.3 C 72 % 17.01 C
1321 25-05-2018 14:00:00 22.5 C 71 % 16.98 C
1322 25-05-2018 14:05:00 22.6 C 71 % 17.07 C
1323 25-05-2018 14:10:00 22.6 C 72 % 17.3 C
1324 25-05-2018 14:15:00 22.7 C 70 % 16.95 C
1325 25-05-2018 14:20:00 22.8 C 70 % 17.04 C
Sensor: Nr:Datum:Temp:Feuchte:Taupunkt:
Aussen-T/F 1326 25-05-2018 14:25:00 23 C 70 % 17.23 C
1327 25-05-2018 14:30:00 23.1 C 70 % 17.33 C
1328 25-05-2018 14:35:00 23.3 C 68 % 17.06 C
1329 25-05-2018 14:40:00 23.4 C 67 % 16.92 C
1330 25-05-2018 14:45:00 23.6 C 67 % 17.11 C
1331 25-05-2018 14:50:00 23.9 C 67 % 17.4 C
1332 25-05-2018 14:55:00 24.1 C 64 % 16.86 C
1333 25-05-2018 15:00:00 24.2 C 64 % 16.96 C
1334 25-05-2018 15:05:00 24.3 C 64 % 17.05 C
1335 25-05-2018 15:10:00 24.5 C 63 % 16.99 C
1336 25-05-2018 15:15:00 24.7 C 65 % 17.68 C
1337 25-05-2018 15:20:00 24.9 C 62 % 17.12 C
1338 25-05-2018 15:25:00 25.1 C 60 % 16.79 C
1339 25-05-2018 15:30:00 25.2 C 61 % 17.14 C
1340 25-05-2018 15:35:00 25.6 C 60 % 17.26 C
1341 25-05-2018 15:40:00 25.8 C 57 % 16.64 C
1342 25-05-2018 15:45:00 25.9 C 56 % 16.45 C
1343 25-05-2018 15:50:00 25.9 C 58 % 17 C
1344 25-05-2018 15:55:00 26.1 C 54 % 16.07 C
1345 25-05-2018 16:00:00 26.3 C 55 % 16.54 C
1346 25-05-2018 16:05:00 26.4 C 54 % 16.34 C
1347 25-05-2018 16:10:00 26.8 C 58 % 17.84 C
1348 25-05-2018 16:15:00 26.9 C 50 % 15.6 C
1349 25-05-2018 16:20:00 27.2 C 50 % 15.87 C
1350 25-05-2018 16:25:00 27.3 C 51 % 16.28 C
Sensor: Nr:Datum:Temp:Feuchte:Taupunkt:
Aussen-T/F 1351 25-05-2018 16:30:00 27.4 C 48 % 15.42 C
1352 25-05-2018 16:35:00 27.6 C 49 % 15.92 C
1353 25-05-2018 16:40:00 27.6 C 47 % 15.27 C
1354 25-05-2018 16:45:00 27.6 C 48 % 15.6 C
1355 25-05-2018 16:50:00 27.3 C 46 % 14.67 C
1356 25-05-2018 16:55:00 26.8 C 54 % 16.71 C
1357 25-05-2018 17:00:00 26.5 C 55 % 16.72 C
1358 25-05-2018 17:05:00 26.8 C 55 % 17 C
1359 25-05-2018 17:10:00 27.1 C 49 % 15.47 C
1360 25-05-2018 17:15:00 27.3 C 50 % 15.97 C
1361 25-05-2018 17:20:00 27.7 C 54 % 17.55 C
1362 25-05-2018 17:25:00 28.1 C 48 % 16.06 C
1363 25-05-2018 17:30:00 28.2 C 49 % 16.47 C
1364 25-05-2018 17:35:00 28.4 C 50 % 16.97 C
1365 25-05-2018 17:40:00 28.3 C 52 % 17.5 C
1366 25-05-2018 17:45:00 28.3 C 51 % 17.19 C
1367 25-05-2018 17:50:00 28.3 C 53 % 17.8 C
1368 25-05-2018 17:55:00 28.2 C 55 % 18.3 C
1369 25-05-2018 18:00:00 27.8 C 57 % 18.5 C
1370 25-05-2018 18:05:00 27.5 C 55 % 17.65 C
1371 25-05-2018 18:10:00 27.6 C 53 % 17.16 C
1372 25-05-2018 18:15:00 27.8 C 52 % 17.04 C
1373 25-05-2018 18:20:00 27.7 C 58 % 18.68 C
1374 25-05-2018 18:25:00 27.6 C 54 % 17.45 C
1375 25-05-2018 18:30:00 27.6 C 57 % 18.31 C
Sensor: Nr:Datum:Temp:Feuchte:Taupunkt:
Aussen-T/F 1376 25-05-2018 18:35:00 27.6 C 53 % 17.16 C
1377 25-05-2018 18:40:00 27.3 C 53 % 16.88 C
1378 25-05-2018 18:45:00 27.4 C 54 % 17.27 C
1379 25-05-2018 18:50:00 27.4 C 58 % 18.4 C
1380 25-05-2018 18:55:00 27.3 C 60 % 18.85 C
1381 25-05-2018 19:00:00 27.1 C 56 % 17.57 C
1382 25-05-2018 19:05:00 26.8 C 55 % 17 C
1383 25-05-2018 19:10:00 26.7 C 55 % 16.91 C
1384 25-05-2018 19:15:00 26.3 C 57 % 17.1 C
1385 25-05-2018 19:20:00 26.1 C 55 % 16.35 C
1386 25-05-2018 19:25:00 26 C 56 % 16.54 C
1387 25-05-2018 19:30:00 25.9 C 55 % 16.17 C
1388 25-05-2018 19:35:00 25.8 C 56 % 16.36 C
1389 25-05-2018 19:40:00 25.7 C 56 % 16.26 C
1390 25-05-2018 19:45:00 25.6 C 64 % 18.28 C
1391 25-05-2018 19:50:00 25.6 C 65 % 18.53 C
1392 25-05-2018 19:55:00 25.5 C 65 % 18.44 C
1393 25-05-2018 20:00:00 25.3 C 64 % 18 C
1394 25-05-2018 20:05:00 25.1 C 62 % 17.31 C
1395 25-05-2018 20:10:00 24.9 C 67 % 18.35 C
1396 25-05-2018 20:15:00 24.7 C 67 % 18.16 C
1397 25-05-2018 20:20:00 24.3 C 67 % 17.78 C
1398 25-05-2018 20:25:00 24.1 C 68 % 17.82 C
1399 25-05-2018 20:30:00 23.7 C 68 % 17.44 C
1400 25-05-2018 20:35:00 23.4 C 68 % 17.16 C
Sensor: Nr:Datum:Temp:Feuchte:Taupunkt:
Aussen-T/F 1401 25-05-2018 20:40:00 23.2 C 69 % 17.2 C
1402 25-05-2018 20:45:00 22.9 C 70 % 17.14 C
1403 25-05-2018 20:50:00 22.6 C 71 % 17.07 C
1404 25-05-2018 20:55:00 22.3 C 71 % 16.79 C
1405 25-05-2018 21:00:00 21.9 C 72 % 16.62 C
1406 25-05-2018 21:05:00 21.6 C 73 % 16.55 C
1407 25-05-2018 21:10:00 21.2 C 74 % 16.38 C
1408 25-05-2018 21:15:00 20.9 C 75 % 16.3 C
1409 25-05-2018 21:20:00 20.7 C 75 % 16.11 C
1410 25-05-2018 21:25:00 20.4 C 76 % 16.03 C
1411 25-05-2018 21:30:00 20.1 C 77 % 15.94 C
1412 25-05-2018 21:35:00 19.9 C 79 % 16.15 C
1413 25-05-2018 21:40:00 19.7 C 79 % 15.96 C
1414 25-05-2018 21:45:00 19.5 C 80 % 15.96 C
1415 25-05-2018 21:50:00 19.3 C 81 % 15.96 C
1416 25-05-2018 21:55:00 19.2 C 81 % 15.86 C
1417 25-05-2018 22:00:00 19.1 C 82 % 15.96 C
1418 25-05-2018 22:05:00 19 C 82 % 15.86 C
1419 25-05-2018 22:10:00 18.9 C 83 % 15.95 C
1420 25-05-2018 22:15:00 18.8 C 83 % 15.85 C
1421 25-05-2018 22:20:00 18.7 C 83 % 15.75 C
1422 25-05-2018 22:25:00 18.6 C 83 % 15.66 C
1423 25-05-2018 22:30:00 18.6 C 83 % 15.66 C
1424 25-05-2018 22:35:00 18.4 C 84 % 15.65 C
1425 25-05-2018 22:40:00 18.4 C 84 % 15.65 C
Sensor: Nr:Datum:Temp:Feuchte:Taupunkt:
Aussen-T/F 1426 25-05-2018 22:45:00 18.3 C 84 % 15.55 C
1427 25-05-2018 22:50:00 18.2 C 85 % 15.64 C
1428 25-05-2018 22:55:00 18.2 C 85 % 15.64 C
1429 25-05-2018 23:00:00 18.1 C 85 % 15.54 C
1430 25-05-2018 23:05:00 18.1 C 85 % 15.54 C
1431 25-05-2018 23:10:00 17.9 C 86 % 15.53 C
1432 25-05-2018 23:15:00 17.8 C 86 % 15.43 C
1433 25-05-2018 23:20:00 17.8 C 86 % 15.43 C
1434 25-05-2018 23:25:00 17.7 C 86 % 15.33 C
1435 25-05-2018 23:30:00 17.6 C 87 % 15.41 C
1436 25-05-2018 23:35:00 17.6 C 87 % 15.41 C
1437 25-05-2018 23:40:00 17.6 C 87 % 15.41 C
1438 25-05-2018 23:45:00 17.5 C 87 % 15.31 C
1439 25-05-2018 23:50:00 17.4 C 87 % 15.21 C
1440 25-05-2018 23:55:00 17.4 C 87 % 15.21 C
1441 26-05-2018 00:00:00 17.4 C 88 % 15.39 C
1442 26-05-2018 00:05:00 17.3 C 87 % 15.12 C
1443 26-05-2018 00:10:00 17.2 C 88 % 15.2 C
1444 26-05-2018 00:15:00 17.2 C 88 % 15.2 C
1445 26-05-2018 00:20:00 17.1 C 88 % 15.1 C
1446 26-05-2018 00:25:00 17.1 C 89 % 15.27 C
1447 26-05-2018 00:30:00 16.9 C 89 % 15.08 C
1448 26-05-2018 00:35:00 16.8 C 89 % 14.98 C
1449 26-05-2018 00:40:00 16.8 C 89 % 14.98 C
1450 26-05-2018 00:45:00 16.7 C 90 % 15.05 C
Sensor: Nr:Datum:Temp:Feuchte:Taupunkt:
Aussen-T/F 1451 26-05-2018 00:50:00 16.7 C 90 % 15.05 C
1452 26-05-2018 00:55:00 16.6 C 90 % 14.95 C
1453 26-05-2018 01:00:00 16.5 C 90 % 14.85 C
1454 26-05-2018 01:05:00 16.4 C 90 % 14.76 C
1455 26-05-2018 01:10:00 16.3 C 91 % 14.83 C
1456 26-05-2018 01:15:00 16.2 C 91 % 14.73 C
1457 26-05-2018 01:20:00 16.2 C 91 % 14.73 C
1458 26-05-2018 01:25:00 16.1 C 91 % 14.63 C
1459 26-05-2018 01:30:00 16 C 91 % 14.53 C
1460 26-05-2018 01:35:00 15.9 C 91 % 14.43 C
1461 26-05-2018 01:40:00 15.9 C 92 % 14.6 C
1462 26-05-2018 01:45:00 15.8 C 92 % 14.5 C
1463 26-05-2018 01:50:00 15.8 C 92 % 14.5 C
1464 26-05-2018 01:55:00 15.7 C 92 % 14.4 C
1465 26-05-2018 02:00:00 15.6 C 92 % 14.31 C
1466 26-05-2018 02:05:00 15.6 C 92 % 14.31 C
1467 26-05-2018 02:10:00 15.4 C 92 % 14.11 C
1468 26-05-2018 02:15:00 15.4 C 93 % 14.27 C
1469 26-05-2018 02:20:00 15.3 C 93 % 14.18 C
1470 26-05-2018 02:25:00 15.3 C 93 % 14.18 C
1471 26-05-2018 02:30:00 15.3 C 93 % 14.18 C
1472 26-05-2018 02:35:00 15.3 C 93 % 14.18 C
1473 26-05-2018 02:40:00 15.3 C 93 % 14.18 C
1474 26-05-2018 02:45:00 15.2 C 93 % 14.08 C
1475 26-05-2018 02:50:00 15.2 C 93 % 14.08 C
Sensor: Nr:Datum:Temp:Feuchte:Taupunkt:
Aussen-T/F 1476 26-05-2018 02:55:00 15.1 C 93 % 13.98 C
1477 26-05-2018 03:00:00 15.1 C 93 % 13.98 C
1478 26-05-2018 03:05:00 15 C 93 % 13.88 C
1479 26-05-2018 03:10:00 14.9 C 93 % 13.78 C
1480 26-05-2018 03:15:00 14.9 C 94 % 13.94 C
1481 26-05-2018 03:20:00 15 C 94 % 14.04 C
1482 26-05-2018 03:25:00 14.9 C 94 % 13.94 C
1483 26-05-2018 03:30:00 14.8 C 94 % 13.84 C
1484 26-05-2018 03:35:00 14.7 C 94 % 13.74 C
1485 26-05-2018 03:40:00 14.7 C 94 % 13.74 C
1486 26-05-2018 03:45:00 14.6 C 94 % 13.65 C
1487 26-05-2018 03:50:00 14.6 C 94 % 13.65 C
1488 26-05-2018 03:55:00 14.6 C 94 % 13.65 C
1489 26-05-2018 04:00:00 14.5 C 94 % 13.55 C
1490 26-05-2018 04:05:00 14.4 C 94 % 13.45 C
1491 26-05-2018 04:10:00 14.4 C 94 % 13.45 C
1492 26-05-2018 04:15:00 14.3 C 94 % 13.35 C
1493 26-05-2018 04:20:00 14.2 C 94 % 13.25 C
1494 26-05-2018 04:25:00 14.2 C 94 % 13.25 C
1495 26-05-2018 04:30:00 14.1 C 94 % 13.15 C
1496 26-05-2018 04:35:00 14.2 C 94 % 13.25 C
1497 26-05-2018 04:40:00 14.1 C 94 % 13.15 C
1498 26-05-2018 04:45:00 14.1 C 94 % 13.15 C
1499 26-05-2018 04:50:00 14.1 C 94 % 13.15 C
1500 26-05-2018 04:55:00 14.1 C 95 % 13.31 C
Sensor: Nr:Datum:Temp:Feuchte:Taupunkt:
Aussen-T/F 1501 26-05-2018 05:00:00 13.9 C 94 % 12.95 C
1502 26-05-2018 05:05:00 13.8 C 94 % 12.85 C
1503 26-05-2018 05:10:00 13.8 C 95 % 13.01 C
1504 26-05-2018 05:15:00 13.8 C 94 % 12.85 C
1505 26-05-2018 05:20:00 13.7 C 94 % 12.75 C
1506 26-05-2018 05:25:00 13.7 C 95 % 12.91 C
1507 26-05-2018 05:30:00 13.7 C 95 % 12.91 C
1508 26-05-2018 05:35:00 13.7 C 95 % 12.91 C
1509 26-05-2018 05:40:00 13.7 C 95 % 12.91 C
1510 26-05-2018 05:45:00 13.7 C 95 % 12.91 C
1511 26-05-2018 05:50:00 13.7 C 95 % 12.91 C
1512 26-05-2018 05:55:00 13.7 C 95 % 12.91 C
1513 26-05-2018 06:00:00 13.8 C 95 % 13.01 C
1514 26-05-2018 06:05:00 14 C 96 % 13.37 C
1515 26-05-2018 06:10:00 13.9 C 95 % 13.11 C
1516 26-05-2018 06:15:00 13.8 C 95 % 13.01 C
1517 26-05-2018 06:20:00 13.7 C 95 % 12.91 C
1518 26-05-2018 06:25:00 13.7 C 95 % 12.91 C
1519 26-05-2018 06:30:00 13.7 C 95 % 12.91 C
1520 26-05-2018 06:35:00 13.7 C 95 % 12.91 C
1521 26-05-2018 06:40:00 13.7 C 96 % 13.07 C
1522 26-05-2018 06:45:00 13.7 C 95 % 12.91 C
1523 26-05-2018 06:50:00 13.7 C 95 % 12.91 C
1524 26-05-2018 06:55:00 13.7 C 96 % 13.07 C
1525 26-05-2018 07:00:00 13.8 C 96 % 13.17 C
Sensor: Nr:Datum:Temp:Feuchte:Taupunkt:
Aussen-T/F 1526 26-05-2018 07:05:00 13.9 C 96 % 13.27 C
1527 26-05-2018 07:10:00 14 C 96 % 13.37 C
1528 26-05-2018 07:15:00 14.2 C 96 % 13.57 C
1529 26-05-2018 07:20:00 14.3 C 96 % 13.67 C
1530 26-05-2018 07:25:00 14.4 C 96 % 13.77 C
1531 26-05-2018 07:30:00 14.5 C 96 % 13.87 C
1532 26-05-2018 07:35:00 14.6 C 96 % 13.97 C
1533 26-05-2018 07:40:00 14.7 C 96 % 14.07 C
1534 26-05-2018 07:45:00 14.8 C 96 % 14.17 C
1535 26-05-2018 07:50:00 14.9 C 96 % 14.27 C
1536 26-05-2018 07:55:00 14.9 C 96 % 14.27 C
1537 26-05-2018 08:00:00 15.1 C 96 % 14.47 C
1538 26-05-2018 08:05:00 15.2 C 96 % 14.57 C
1539 26-05-2018 08:10:00 15.3 C 96 % 14.67 C
1540 26-05-2018 08:15:00 15.4 C 96 % 14.77 C
1541 26-05-2018 08:20:00 15.6 C 96 % 14.96 C
1542 26-05-2018 08:25:00 15.7 C 96 % 15.06 C
1543 26-05-2018 08:30:00 15.8 C 96 % 15.16 C
1544 26-05-2018 08:35:00 15.9 C 96 % 15.26 C
1545 26-05-2018 08:40:00 16 C 96 % 15.36 C
1546 26-05-2018 08:45:00 16.1 C 96 % 15.46 C
1547 26-05-2018 08:50:00 16.2 C 96 % 15.56 C
1548 26-05-2018 08:55:00 16.3 C 96 % 15.66 C
1549 26-05-2018 09:00:00 16.3 C 96 % 15.66 C
1550 26-05-2018 09:05:00 16.4 C 96 % 15.76 C
Sensor: Nr:Datum:Temp:Feuchte:Taupunkt:
Aussen-T/F 1551 26-05-2018 09:10:00 16.6 C 96 % 15.96 C
1552 26-05-2018 09:15:00 16.7 C 96 % 16.06 C
1553 26-05-2018 09:20:00 16.8 C 96 % 16.16 C
1554 26-05-2018 09:25:00 16.8 C 96 % 16.16 C
1555 26-05-2018 09:30:00 16.9 C 96 % 16.26 C
1556 26-05-2018 09:35:00 17 C 96 % 16.36 C
1557 26-05-2018 09:40:00 17.2 C 96 % 16.56 C
1558 26-05-2018 09:45:00 17.3 C 95 % 16.49 C
1559 26-05-2018 09:50:00 17.4 C 95 % 16.59 C
1560 26-05-2018 09:55:00 17.6 C 95 % 16.79 C
1561 26-05-2018 10:00:00 17.8 C 95 % 16.99 C
1562 26-05-2018 10:05:00 18.1 C 94 % 17.12 C
1563 26-05-2018 10:10:00 18.4 C 94 % 17.42 C
1564 26-05-2018 10:15:00 18.6 C 91 % 17.1 C
1565 26-05-2018 10:20:00 19 C 91 % 17.5 C
1566 26-05-2018 10:25:00 19.6 C 89 % 17.74 C
1567 26-05-2018 10:30:00 20.2 C 83 % 17.22 C
1568 26-05-2018 10:35:00 20.9 C 81 % 17.52 C
1569 26-05-2018 10:40:00 21.4 C 79 % 17.61 C
1570 26-05-2018 10:45:00 21.7 C 78 % 17.7 C
1571 26-05-2018 10:50:00 21.8 C 76 % 17.38 C
1572 26-05-2018 10:55:00 22 C 76 % 17.57 C
1573 26-05-2018 11:00:00 22.1 C 75 % 17.46 C
1574 26-05-2018 11:05:00 22.3 C 75 % 17.65 C
1575 26-05-2018 11:10:00 22.4 C 75 % 17.75 C
Sensor: Nr:Datum:Temp:Feuchte:Taupunkt:
Aussen-T/F 1576 26-05-2018 11:15:00 22.5 C 77 % 18.27 C
1577 26-05-2018 11:20:00 22.6 C 73 % 17.51 C
1578 26-05-2018 11:25:00 22.8 C 75 % 18.14 C
1579 26-05-2018 11:30:00 22.9 C 72 % 17.58 C
1580 26-05-2018 11:35:00 23.1 C 70 % 17.33 C
1581 26-05-2018 11:40:00 23.2 C 73 % 18.09 C
1582 26-05-2018 11:45:00 23.2 C 70 % 17.42 C
1583 26-05-2018 11:50:00 23.4 C 70 % 17.62 C
1584 26-05-2018 11:55:00 23.6 C 68 % 17.35 C
1585 26-05-2018 12:00:00 23.8 C 69 % 17.77 C
1586 26-05-2018 12:05:00 23.9 C 69 % 17.87 C
1587 26-05-2018 12:10:00 24.1 C 66 % 17.35 C
1588 26-05-2018 12:15:00 24.3 C 66 % 17.54 C
1589 26-05-2018 12:20:00 24.4 C 65 % 17.39 C
1590 26-05-2018 12:25:00 24.5 C 65 % 17.49 C
1591 26-05-2018 12:30:00 24.6 C 66 % 17.83 C
1592 26-05-2018 12:35:00 24.6 C 65 % 17.58 C
1593 26-05-2018 12:40:00 24.7 C 64 % 17.43 C
1594 26-05-2018 12:45:00 24.8 C 65 % 17.77 C
1595 26-05-2018 12:50:00 24.8 C 65 % 17.77 C
1596 26-05-2018 12:55:00 24.7 C 62 % 16.93 C
1597 26-05-2018 13:00:00 24.7 C 64 % 17.43 C
1598 26-05-2018 13:05:00 24.7 C 68 % 18.4 C
1599 26-05-2018 13:10:00 24.7 C 64 % 17.43 C
1600 26-05-2018 13:15:00 24.9 C 61 % 16.86 C
Sensor: Nr:Datum:Temp:Feuchte:Taupunkt:
Aussen-T/F 1601 26-05-2018 13:20:00 25.2 C 62 % 17.4 C
1602 26-05-2018 13:25:00 25.4 C 60 % 17.07 C
1603 26-05-2018 13:30:00 25.8 C 61 % 17.71 C
1604 26-05-2018 13:35:00 25.9 C 58 % 17 C
1605 26-05-2018 13:40:00 26 C 60 % 17.63 C
1606 26-05-2018 13:45:00 26.1 C 58 % 17.19 C
1607 26-05-2018 13:50:00 26.1 C 59 % 17.46 C
1608 26-05-2018 13:55:00 26.1 C 58 % 17.19 C
1609 26-05-2018 14:00:00 26.1 C 57 % 16.92 C
1610 26-05-2018 14:05:00 26.1 C 57 % 16.92 C
1611 26-05-2018 14:10:00 26.1 C 55 % 16.35 C
1612 26-05-2018 14:15:00 26.3 C 57 % 17.1 C
1613 26-05-2018 14:20:00 26.3 C 53 % 15.96 C
1614 26-05-2018 14:25:00 26.4 C 54 % 16.34 C
1615 26-05-2018 14:30:00 26.4 C 54 % 16.34 C
1616 26-05-2018 14:35:00 26.4 C 59 % 17.74 C
1617 26-05-2018 14:40:00 26.4 C 66 % 19.53 C
1618 26-05-2018 14:45:00 26.3 C 56 % 16.82 C
1619 26-05-2018 14:50:00 26.6 C 58 % 17.66 C
1620 26-05-2018 14:55:00 26.8 C 57 % 17.57 C
1621 26-05-2018 15:00:00 26.9 C 52 % 16.21 C
1622 26-05-2018 15:05:00 27.1 C 52 % 16.4 C
1623 26-05-2018 15:10:00 27.2 C 60 % 18.76 C
1624 26-05-2018 15:15:00 26.9 C 54 % 16.81 C
1625 26-05-2018 15:20:00 26.9 C 50 % 15.6 C
Sensor: Nr:Datum:Temp:Feuchte:Taupunkt:
Aussen-T/F 1626 26-05-2018 15:25:00 27.1 C 61 % 18.93 C
1627 26-05-2018 15:30:00 27.7 C 56 % 18.12 C
1628 26-05-2018 15:35:00 28.3 C 52 % 17.5 C
1629 26-05-2018 15:40:00 28.9 C 49 % 17.11 C
1630 26-05-2018 15:45:00 29.1 C 49 % 17.29 C
1631 26-05-2018 15:50:00 29 C 50 % 17.52 C
1632 26-05-2018 15:55:00 29 C 55 % 19.04 C
1633 26-05-2018 16:00:00 28.8 C 55 % 18.86 C
1634 26-05-2018 16:05:00 28.6 C 57 % 19.24 C
1635 26-05-2018 16:10:00 28.6 C 51 % 17.47 C
1636 26-05-2018 16:15:00 28.7 C 49 % 16.93 C
1637 26-05-2018 16:20:00 29 C 49 % 17.2 C
1638 26-05-2018 16:25:00 29.2 C 49 % 17.39 C
1639 26-05-2018 16:30:00 29.3 C 46 % 16.48 C
1640 26-05-2018 16:35:00 29.3 C 46 % 16.48 C
1641 26-05-2018 16:40:00 29.4 C 47 % 16.91 C
1642 26-05-2018 16:45:00 29.3 C 46 % 16.48 C
1643 26-05-2018 16:50:00 29.4 C 48 % 17.24 C
1644 26-05-2018 16:55:00 29.6 C 45 % 16.41 C
1645 26-05-2018 17:00:00 29.4 C 45 % 16.23 C
1646 26-05-2018 17:05:00 29.3 C 45 % 16.13 C
1647 26-05-2018 17:10:00 29.3 C 45 % 16.13 C
1648 26-05-2018 17:15:00 29.4 C 47 % 16.91 C
1649 26-05-2018 17:20:00 29.5 C 44 % 15.96 C
1650 26-05-2018 17:25:00 29.5 C 45 % 16.32 C
Sensor: Nr:Datum:Temp:Feuchte:Taupunkt:
Aussen-T/F 1651 26-05-2018 17:30:00 29.3 C 49 % 17.48 C
1652 26-05-2018 17:35:00 29.1 C 52 % 18.24 C
1653 26-05-2018 17:40:00 28.7 C 47 % 16.27 C
1654 26-05-2018 17:45:00 28.7 C 48 % 16.6 C
1655 26-05-2018 17:50:00 28.8 C 47 % 16.36 C
1656 26-05-2018 17:55:00 29.1 C 46 % 16.3 C
1657 26-05-2018 18:00:00 29.2 C 49 % 17.39 C
1658 26-05-2018 18:05:00 29.1 C 48 % 16.97 C
1659 26-05-2018 18:10:00 29.1 C 53 % 18.54 C
1660 26-05-2018 18:15:00 29.3 C 53 % 18.73 C
1661 26-05-2018 18:20:00 29.3 C 57 % 19.89 C
1662 26-05-2018 18:25:00 29.1 C 52 % 18.24 C
1663 26-05-2018 18:30:00 28.9 C 49 % 17.11 C
1664 26-05-2018 18:35:00 28.8 C 48 % 16.69 C
1665 26-05-2018 18:40:00 28.9 C 50 % 17.43 C
1666 26-05-2018 18:45:00 28.9 C 50 % 17.43 C
1667 26-05-2018 18:50:00 29.1 C 47 % 16.64 C
1668 26-05-2018 18:55:00 29.1 C 48 % 16.97 C
1669 26-05-2018 19:00:00 29.2 C 57 % 19.8 C
1670 26-05-2018 19:05:00 29.2 C 56 % 19.52 C
1671 26-05-2018 19:10:00 28.9 C 56 % 19.24 C
1672 26-05-2018 19:15:00 28.6 C 56 % 18.96 C
1673 26-05-2018 19:20:00 28.2 C 56 % 18.59 C
1674 26-05-2018 19:25:00 27.8 C 58 % 18.78 C
1675 26-05-2018 19:30:00 27.6 C 59 % 18.86 C
Sensor: Nr:Datum:Temp:Feuchte:Taupunkt:
Aussen-T/F 1676 26-05-2018 19:35:00 27.3 C 59 % 18.58 C
1677 26-05-2018 19:40:00 27.1 C 60 % 18.66 C
1678 26-05-2018 19:45:00 26.9 C 62 % 19 C
1679 26-05-2018 19:50:00 26.7 C 62 % 18.81 C
1680 26-05-2018 19:55:00 26.6 C 62 % 18.72 C
1681 26-05-2018 20:00:00 26.4 C 62 % 18.53 C
1682 26-05-2018 20:05:00 26.3 C 62 % 18.44 C
1683 26-05-2018 20:10:00 26.2 C 63 % 18.6 C
1684 26-05-2018 20:15:00 25.9 C 62 % 18.06 C
1685 26-05-2018 20:20:00 25.7 C 63 % 18.13 C
1686 26-05-2018 20:25:00 25.3 C 64 % 18 C
1687 26-05-2018 20:30:00 25.1 C 65 % 18.06 C
1688 26-05-2018 20:35:00 24.8 C 65 % 17.77 C
1689 26-05-2018 20:40:00 24.4 C 65 % 17.39 C
1690 26-05-2018 20:45:00 24.1 C 66 % 17.35 C
1691 26-05-2018 20:50:00 23.7 C 67 % 17.21 C
1692 26-05-2018 20:55:00 23.4 C 68 % 17.16 C
1693 26-05-2018 21:00:00 23 C 69 % 17.01 C
1694 26-05-2018 21:05:00 22.7 C 69 % 16.72 C
1695 26-05-2018 21:10:00 22.4 C 70 % 16.66 C
1696 26-05-2018 21:15:00 22.3 C 71 % 16.79 C
1697 26-05-2018 21:20:00 22.1 C 72 % 16.82 C
1698 26-05-2018 21:25:00 21.9 C 72 % 16.62 C
1699 26-05-2018 21:30:00 21.7 C 72 % 16.43 C
1700 26-05-2018 21:35:00 21.6 C 73 % 16.55 C
Sensor: Nr:Datum:Temp:Feuchte:Taupunkt:
Aussen-T/F 1701 26-05-2018 21:40:00 21.4 C 73 % 16.36 C
1702 26-05-2018 21:45:00 21.2 C 73 % 16.17 C
1703 26-05-2018 21:50:00 21.1 C 74 % 16.29 C
1704 26-05-2018 21:55:00 21 C 75 % 16.4 C
1705 26-05-2018 22:00:00 20.9 C 75 % 16.3 C
1706 26-05-2018 22:05:00 20.8 C 76 % 16.41 C
1707 26-05-2018 22:10:00 20.7 C 76 % 16.32 C
1708 26-05-2018 22:15:00 20.5 C 76 % 16.12 C
1709 26-05-2018 22:20:00 20.4 C 77 % 16.23 C
1710 26-05-2018 22:25:00 20.3 C 77 % 16.14 C
1711 26-05-2018 22:30:00 20.2 C 78 % 16.24 C
1712 26-05-2018 22:35:00 20.1 C 78 % 16.14 C
1713 26-05-2018 22:40:00 20 C 78 % 16.05 C
1714 26-05-2018 22:45:00 19.9 C 79 % 16.15 C
1715 26-05-2018 22:50:00 19.8 C 80 % 16.25 C
1716 26-05-2018 22:55:00 19.7 C 80 % 16.15 C
1717 26-05-2018 23:00:00 19.6 C 80 % 16.06 C
1718 26-05-2018 23:05:00 19.4 C 80 % 15.86 C
1719 26-05-2018 23:10:00 19.4 C 80 % 15.86 C
1720 26-05-2018 23:15:00 19.3 C 81 % 15.96 C
1721 26-05-2018 23:20:00 19.2 C 81 % 15.86 C
1722 26-05-2018 23:25:00 19.2 C 82 % 16.05 C
1723 26-05-2018 23:30:00 19.1 C 82 % 15.96 C
1724 26-05-2018 23:35:00 18.9 C 82 % 15.76 C
1725 26-05-2018 23:40:00 18.8 C 83 % 15.85 C
Sensor: Nr:Datum:Temp:Feuchte:Taupunkt:
Aussen-T/F 1726 26-05-2018 23:45:00 18.7 C 83 % 15.75 C
1727 26-05-2018 23:50:00 18.6 C 83 % 15.66 C
1728 26-05-2018 23:55:00 18.5 C 84 % 15.75 C
1729 27-05-2018 00:00:00 18.4 C 84 % 15.65 C
1730 27-05-2018 00:05:00 18.3 C 85 % 15.74 C
1731 27-05-2018 00:10:00 18.3 C 85 % 15.74 C
1732 27-05-2018 00:15:00 18.2 C 85 % 15.64 C
1733 27-05-2018 00:20:00 18.1 C 85 % 15.54 C
1734 27-05-2018 00:25:00 18.1 C 85 % 15.54 C
1735 27-05-2018 00:30:00 18 C 86 % 15.62 C
1736 27-05-2018 00:35:00 17.9 C 86 % 15.53 C
1737 27-05-2018 00:40:00 17.8 C 86 % 15.43 C
1738 27-05-2018 00:45:00 17.8 C 86 % 15.43 C
1739 27-05-2018 00:50:00 17.8 C 86 % 15.43 C
1740 27-05-2018 00:55:00 17.7 C 86 % 15.33 C
1741 27-05-2018 01:00:00 17.6 C 86 % 15.23 C
1742 27-05-2018 01:05:00 17.5 C 86 % 15.13 C
1743 27-05-2018 01:10:00 17.4 C 87 % 15.21 C
1744 27-05-2018 01:15:00 17.3 C 87 % 15.12 C
1745 27-05-2018 01:20:00 17.2 C 87 % 15.02 C
1746 27-05-2018 01:25:00 17.1 C 87 % 14.92 C
1747 27-05-2018 01:30:00 17 C 87 % 14.82 C
1748 27-05-2018 01:35:00 17 C 88 % 15 C
1749 27-05-2018 01:40:00 17.1 C 88 % 15.1 C
1750 27-05-2018 01:45:00 17 C 88 % 15 C
Sensor: Nr:Datum:Temp:Feuchte:Taupunkt:
Aussen-T/F 1751 27-05-2018 01:50:00 16.9 C 88 % 14.9 C
1752 27-05-2018 01:55:00 16.8 C 88 % 14.8 C
1753 27-05-2018 02:00:00 16.7 C 88 % 14.7 C
1754 27-05-2018 02:05:00 16.7 C 88 % 14.7 C
1755 27-05-2018 02:10:00 16.6 C 89 % 14.78 C
1756 27-05-2018 02:15:00 16.4 C 89 % 14.58 C
1757 27-05-2018 02:20:00 16.3 C 89 % 14.48 C
1758 27-05-2018 02:25:00 16.3 C 89 % 14.48 C
1759 27-05-2018 02:30:00 16.2 C 89 % 14.39 C
1760 27-05-2018 02:35:00 16.1 C 89 % 14.29 C
1761 27-05-2018 02:40:00 16 C 90 % 14.36 C
1762 27-05-2018 02:45:00 15.9 C 91 % 14.43 C
1763 27-05-2018 02:50:00 15.9 C 91 % 14.43 C
1764 27-05-2018 02:55:00 15.9 C 91 % 14.43 C
1765 27-05-2018 03:00:00 15.8 C 91 % 14.33 C
1766 27-05-2018 03:05:00 15.8 C 91 % 14.33 C
1767 27-05-2018 03:10:00 15.8 C 91 % 14.33 C
1768 27-05-2018 03:15:00 15.7 C 91 % 14.24 C
1769 27-05-2018 03:20:00 15.6 C 91 % 14.14 C
1770 27-05-2018 03:25:00 15.6 C 91 % 14.14 C
1771 27-05-2018 03:30:00 15.5 C 91 % 14.04 C
1772 27-05-2018 03:35:00 15.4 C 92 % 14.11 C
1773 27-05-2018 03:40:00 15.4 C 92 % 14.11 C
1774 27-05-2018 03:45:00 15.4 C 93 % 14.27 C
1775 27-05-2018 03:50:00 15.4 C 92 % 14.11 C
Sensor: Nr:Datum:Temp:Feuchte:Taupunkt:
Aussen-T/F 1776 27-05-2018 03:55:00 15.3 C 92 % 14.01 C
1777 27-05-2018 04:00:00 15.3 C 92 % 14.01 C
1778 27-05-2018 04:05:00 15.3 C 93 % 14.18 C
1779 27-05-2018 04:10:00 15.3 C 93 % 14.18 C
1780 27-05-2018 04:15:00 15.2 C 92 % 13.91 C
1781 27-05-2018 04:20:00 15.2 C 93 % 14.08 C
1782 27-05-2018 04:25:00 15.2 C 93 % 14.08 C
1783 27-05-2018 04:30:00 15.2 C 93 % 14.08 C
1784 27-05-2018 04:35:00 15.3 C 94 % 14.34 C
1785 27-05-2018 04:40:00 15.4 C 94 % 14.44 C
1786 27-05-2018 04:45:00 15.4 C 94 % 14.44 C
1787 27-05-2018 04:50:00 15.5 C 94 % 14.54 C
1788 27-05-2018 04:55:00 15.5 C 94 % 14.54 C
1789 27-05-2018 05:00:00 15.5 C 94 % 14.54 C
1790 27-05-2018 05:05:00 15.6 C 94 % 14.64 C
1791 27-05-2018 05:10:00 15.6 C 94 % 14.64 C
1792 27-05-2018 05:15:00 15.6 C 94 % 14.64 C
1793 27-05-2018 05:20:00 15.6 C 94 % 14.64 C
1794 27-05-2018 05:25:00 15.5 C 94 % 14.54 C
1795 27-05-2018 05:30:00 15.5 C 94 % 14.54 C
1796 27-05-2018 05:35:00 15.6 C 94 % 14.64 C
1797 27-05-2018 05:40:00 15.6 C 94 % 14.64 C
1798 27-05-2018 05:45:00 15.5 C 93 % 14.37 C
1799 27-05-2018 05:50:00 15.4 C 93 % 14.27 C
1800 27-05-2018 05:55:00 15.3 C 93 % 14.18 C
Sensor: Nr:Datum:Temp:Feuchte:Taupunkt:
Aussen-T/F 1801 27-05-2018 06:00:00 15.3 C 93 % 14.18 C
1802 27-05-2018 06:05:00 15.3 C 93 % 14.18 C
1803 27-05-2018 06:10:00 15.3 C 94 % 14.34 C
1804 27-05-2018 06:15:00 15.4 C 94 % 14.44 C
1805 27-05-2018 06:20:00 15.4 C 94 % 14.44 C
1806 27-05-2018 06:25:00 15.6 C 94 % 14.64 C
1807 27-05-2018 06:30:00 15.7 C 94 % 14.74 C
1808 27-05-2018 06:35:00 15.8 C 94 % 14.84 C
1809 27-05-2018 06:40:00 15.8 C 94 % 14.84 C
1810 27-05-2018 06:45:00 15.9 C 94 % 14.94 C
1811 27-05-2018 06:50:00 15.9 C 94 % 14.94 C
1812 27-05-2018 06:55:00 15.9 C 94 % 14.94 C
1813 27-05-2018 07:00:00 15.8 C 94 % 14.84 C
1814 27-05-2018 07:05:00 15.8 C 93 % 14.67 C
1815 27-05-2018 07:10:00 15.7 C 93 % 14.57 C
1816 27-05-2018 07:15:00 15.7 C 94 % 14.74 C
1817 27-05-2018 07:20:00 15.7 C 94 % 14.74 C
1818 27-05-2018 07:25:00 15.7 C 94 % 14.74 C
1819 27-05-2018 07:30:00 15.7 C 94 % 14.74 C
1820 27-05-2018 07:35:00 15.7 C 94 % 14.74 C
1821 27-05-2018 07:40:00 15.7 C 94 % 14.74 C
1822 27-05-2018 07:45:00 15.8 C 94 % 14.84 C
1823 27-05-2018 07:50:00 15.8 C 94 % 14.84 C
1824 27-05-2018 07:55:00 15.9 C 94 % 14.94 C
1825 27-05-2018 08:00:00 16 C 94 % 15.03 C
Sensor: Nr:Datum:Temp:Feuchte:Taupunkt:
Aussen-T/F 1826 27-05-2018 08:05:00 16.1 C 94 % 15.13 C
1827 27-05-2018 08:10:00 16.2 C 94 % 15.23 C
1828 27-05-2018 08:15:00 16.3 C 94 % 15.33 C
1829 27-05-2018 08:20:00 16.3 C 95 % 15.5 C
1830 27-05-2018 08:25:00 16.5 C 95 % 15.7 C
1831 27-05-2018 08:30:00 16.7 C 95 % 15.9 C
1832 27-05-2018 08:35:00 16.9 C 95 % 16.09 C
1833 27-05-2018 08:40:00 17.2 C 95 % 16.39 C
1834 27-05-2018 08:45:00 17.5 C 95 % 16.69 C
1835 27-05-2018 08:50:00 17.7 C 95 % 16.89 C
1836 27-05-2018 08:55:00 17.9 C 94 % 16.92 C
1837 27-05-2018 09:00:00 18.1 C 94 % 17.12 C
1838 27-05-2018 09:05:00 18.2 C 93 % 17.05 C
1839 27-05-2018 09:10:00 18.3 C 93 % 17.15 C
1840 27-05-2018 09:15:00 18.4 C 92 % 17.08 C
1841 27-05-2018 09:20:00 18.4 C 91 % 16.9 C
1842 27-05-2018 09:25:00 18.6 C 90 % 16.93 C
1843 27-05-2018 09:30:00 18.7 C 90 % 17.03 C
1844 27-05-2018 09:35:00 18.7 C 89 % 16.85 C
1845 27-05-2018 09:40:00 18.8 C 88 % 16.77 C
1846 27-05-2018 09:45:00 19 C 87 % 16.79 C
1847 27-05-2018 09:50:00 19.2 C 85 % 16.62 C
1848 27-05-2018 09:55:00 19.7 C 82 % 16.54 C
1849 27-05-2018 10:00:00 20.1 C 82 % 16.93 C
1850 27-05-2018 10:05:00 20.5 C 80 % 16.93 C
Sensor: Nr:Datum:Temp:Feuchte:Taupunkt:
Aussen-T/F 1851 27-05-2018 10:10:00 20.9 C 78 % 16.92 C
1852 27-05-2018 10:15:00 21.2 C 80 % 17.61 C
1853 27-05-2018 10:20:00 21.4 C 77 % 17.2 C
1854 27-05-2018 10:25:00 21.9 C 78 % 17.89 C
1855 27-05-2018 10:30:00 22.2 C 77 % 17.98 C
1856 27-05-2018 10:35:00 22.5 C 76 % 18.06 C
1857 27-05-2018 10:40:00 22.7 C 74 % 17.83 C
1858 27-05-2018 10:45:00 22.7 C 71 % 17.17 C
1859 27-05-2018 10:50:00 22.7 C 74 % 17.83 C
1860 27-05-2018 10:55:00 22.7 C 74 % 17.83 C
1861 27-05-2018 11:00:00 22.7 C 72 % 17.39 C
1862 27-05-2018 11:05:00 22.8 C 78 % 18.76 C
1863 27-05-2018 11:10:00 22.6 C 77 % 18.36 C
1864 27-05-2018 11:15:00 22.6 C 76 % 18.15 C
1865 27-05-2018 11:20:00 22.6 C 74 % 17.73 C
1866 27-05-2018 11:25:00 22.9 C 75 % 18.23 C
1867 27-05-2018 11:30:00 23.3 C 71 % 17.75 C
1868 27-05-2018 11:35:00 23.7 C 74 % 18.79 C
1869 27-05-2018 11:40:00 24 C 72 % 18.64 C
1870 27-05-2018 11:45:00 24.4 C 75 % 19.68 C
1871 27-05-2018 11:50:00 24.5 C 72 % 19.12 C
1872 27-05-2018 11:55:00 24.6 C 74 % 19.66 C
1873 27-05-2018 12:00:00 24.7 C 75 % 19.97 C
1874 27-05-2018 12:05:00 24.8 C 75 % 20.06 C
1875 27-05-2018 12:10:00 24.7 C 69 % 18.63 C
Sensor: Nr:Datum:Temp:Feuchte:Taupunkt:
Aussen-T/F 1876 27-05-2018 12:15:00 24.9 C 67 % 18.35 C
1877 27-05-2018 12:20:00 25.4 C 65 % 18.34 C
1878 27-05-2018 12:25:00 25.9 C 63 % 18.31 C
1879 27-05-2018 12:30:00 26.3 C 62 % 18.44 C
1880 27-05-2018 12:35:00 26.7 C 62 % 18.81 C
1881 27-05-2018 12:40:00 26.8 C 62 % 18.91 C
1882 27-05-2018 12:45:00 26.9 C 60 % 18.48 C
1883 27-05-2018 12:50:00 26.9 C 59 % 18.21 C
1884 27-05-2018 12:55:00 26.9 C 59 % 18.21 C
1885 27-05-2018 13:00:00 27 C 61 % 18.83 C
1886 27-05-2018 13:05:00 27.1 C 57 % 17.85 C
1887 27-05-2018 13:10:00 27.2 C 58 % 18.22 C
1888 27-05-2018 13:15:00 27.2 C 55 % 17.37 C
1889 27-05-2018 13:20:00 27.1 C 59 % 18.4 C
1890 27-05-2018 13:25:00 27.1 C 60 % 18.66 C
1891 27-05-2018 13:30:00 27.1 C 61 % 18.93 C
1892 27-05-2018 13:35:00 27.2 C 55 % 17.37 C
1893 27-05-2018 13:40:00 27.3 C 54 % 17.18 C
1894 27-05-2018 13:45:00 27.6 C 64 % 20.17 C
1895 27-05-2018 13:50:00 27.7 C 55 % 17.84 C
1896 27-05-2018 13:55:00 27.7 C 55 % 17.84 C
1897 27-05-2018 14:00:00 27.7 C 53 % 17.25 C
1898 27-05-2018 14:05:00 27.7 C 52 % 16.95 C
1899 27-05-2018 14:10:00 27.6 C 54 % 17.45 C
1900 27-05-2018 14:15:00 27.6 C 53 % 17.16 C
Sensor: Nr:Datum:Temp:Feuchte:Taupunkt:
Aussen-T/F 1901 27-05-2018 14:20:00 27.7 C 56 % 18.12 C
1902 27-05-2018 14:25:00 27.7 C 58 % 18.68 C
1903 27-05-2018 14:30:00 27.6 C 59 % 18.86 C
1904 27-05-2018 14:35:00 27.4 C 60 % 18.95 C
1905 27-05-2018 14:40:00 27.3 C 60 % 18.85 C
1906 27-05-2018 14:45:00 27.1 C 60 % 18.66 C
1907 27-05-2018 14:50:00 26.9 C 61 % 18.74 C
1908 27-05-2018 14:55:00 26.7 C 62 % 18.81 C
1909 27-05-2018 15:00:00 26.6 C 64 % 19.23 C
1910 27-05-2018 15:05:00 26.4 C 64 % 19.04 C
1911 27-05-2018 15:10:00 26.1 C 64 % 18.76 C
1912 27-05-2018 15:15:00 25.9 C 64 % 18.57 C
1913 27-05-2018 15:20:00 25.8 C 64 % 18.47 C
1914 27-05-2018 15:25:00 25.7 C 65 % 18.62 C
1915 27-05-2018 15:30:00 25.7 C 65 % 18.62 C
1916 27-05-2018 15:35:00 25.7 C 67 % 19.11 C
1917 27-05-2018 15:40:00 25.9 C 66 % 19.06 C
1918 27-05-2018 15:45:00 26.3 C 68 % 19.92 C
1919 27-05-2018 15:50:00 26.8 C 67 % 20.16 C
1920 27-05-2018 15:55:00 27.5 C 58 % 18.5 C
1921 27-05-2018 16:00:00 28.2 C 57 % 18.87 C
1922 27-05-2018 16:05:00 28.6 C 52 % 17.78 C
1923 27-05-2018 16:10:00 28.8 C 47 % 16.36 C
1924 27-05-2018 16:15:00 28.8 C 49 % 17.02 C
1925 27-05-2018 16:20:00 28.7 C 50 % 17.25 C
Sensor: Nr:Datum:Temp:Feuchte:Taupunkt:
Aussen-T/F 1926 27-05-2018 16:25:00 28.7 C 49 % 16.93 C
1927 27-05-2018 16:30:00 28.9 C 48 % 16.79 C
1928 27-05-2018 16:35:00 29.2 C 50 % 17.71 C
1929 27-05-2018 16:40:00 29.3 C 49 % 17.48 C
1930 27-05-2018 16:45:00 29.5 C 44 % 15.96 C
1931 27-05-2018 16:50:00 29.6 C 45 % 16.41 C
1932 27-05-2018 16:55:00 29.6 C 46 % 16.75 C
1933 27-05-2018 17:00:00 29.2 C 48 % 17.06 C
1934 27-05-2018 17:05:00 28.7 C 51 % 17.56 C
1935 27-05-2018 17:10:00 28.3 C 58 % 19.24 C
1936 27-05-2018 17:15:00 27.8 C 61 % 19.59 C
1937 27-05-2018 17:20:00 27.3 C 62 % 19.38 C
1938 27-05-2018 17:25:00 26.8 C 63 % 19.16 C
1939 27-05-2018 17:30:00 26.3 C 65 % 19.19 C
1940 27-05-2018 17:35:00 25.9 C 68 % 19.54 C
1941 27-05-2018 17:40:00 25.6 C 68 % 19.25 C
1942 27-05-2018 17:45:00 25.3 C 68 % 18.97 C
1943 27-05-2018 17:50:00 25 C 69 % 18.91 C
1944 27-05-2018 17:55:00 24.8 C 70 % 18.95 C
1945 27-05-2018 18:00:00 24.6 C 71 % 18.99 C
1946 27-05-2018 18:05:00 24.4 C 72 % 19.02 C
1947 27-05-2018 18:10:00 24.2 C 73 % 19.05 C
1948 27-05-2018 18:15:00 24 C 74 % 19.08 C
1949 27-05-2018 18:20:00 23.8 C 73 % 18.67 C
1950 27-05-2018 18:25:00 23.6 C 74 % 18.69 C
Sensor: Nr:Datum:Temp:Feuchte:Taupunkt:
Aussen-T/F 1951 27-05-2018 18:30:00 23.3 C 75 % 18.62 C
1952 27-05-2018 18:35:00 23.1 C 76 % 18.64 C
1953 27-05-2018 18:40:00 22.8 C 78 % 18.76 C
1954 27-05-2018 18:45:00 22.4 C 81 % 18.98 C
1955 27-05-2018 18:50:00 22.1 C 82 % 18.88 C
1956 27-05-2018 18:55:00 21.8 C 83 % 18.78 C
1957 27-05-2018 19:00:00 21.4 C 84 % 18.58 C
1958 27-05-2018 19:05:00 21.1 C 85 % 18.48 C
1959 27-05-2018 19:10:00 20.8 C 86 % 18.37 C
1960 27-05-2018 19:15:00 20.6 C 87 % 18.36 C
1961 27-05-2018 19:20:00 20.4 C 88 % 18.34 C
1962 27-05-2018 19:25:00 20.3 C 88 % 18.25 C
1963 27-05-2018 19:30:00 20.2 C 89 % 18.33 C
1964 27-05-2018 19:35:00 20.1 C 89 % 18.23 C
1965 27-05-2018 19:40:00 20.1 C 90 % 18.41 C
1966 27-05-2018 19:45:00 20 C 90 % 18.31 C
1967 27-05-2018 19:50:00 19.9 C 90 % 18.21 C
1968 27-05-2018 19:55:00 19.9 C 91 % 18.39 C
1969 27-05-2018 20:00:00 19.9 C 91 % 18.39 C
1970 27-05-2018 20:05:00 19.8 C 92 % 18.46 C
1971 27-05-2018 20:10:00 19.8 C 92 % 18.46 C
1972 27-05-2018 20:15:00 19.7 C 91 % 18.19 C
1973 27-05-2018 20:20:00 19.3 C 88 % 17.26 C
1974 27-05-2018 20:25:00 19.3 C 88 % 17.26 C
1975 27-05-2018 20:30:00 19.2 C 89 % 17.34 C
Sensor: Nr:Datum:Temp:Feuchte:Taupunkt:
Aussen-T/F 1976 27-05-2018 20:35:00 19.2 C 90 % 17.52 C
1977 27-05-2018 20:40:00 19 C 90 % 17.32 C
1978 27-05-2018 20:45:00 18.9 C 90 % 17.22 C
1979 27-05-2018 20:50:00 18.8 C 91 % 17.3 C
1980 27-05-2018 20:55:00 18.7 C 91 % 17.2 C
1981 27-05-2018 21:00:00 18.6 C 92 % 17.27 C
1982 27-05-2018 21:05:00 18.4 C 92 % 17.08 C
1983 27-05-2018 21:10:00 18.4 C 92 % 17.08 C
1984 27-05-2018 21:15:00 18.3 C 92 % 16.98 C
1985 27-05-2018 21:20:00 18.2 C 92 % 16.88 C
1986 27-05-2018 21:25:00 18.1 C 92 % 16.78 C
1987 27-05-2018 21:30:00 18 C 93 % 16.85 C
1988 27-05-2018 21:35:00 17.9 C 93 % 16.75 C
1989 27-05-2018 21:40:00 17.8 C 93 % 16.65 C
1990 27-05-2018 21:45:00 17.8 C 93 % 16.65 C
1991 27-05-2018 21:50:00 17.7 C 93 % 16.55 C
1992 27-05-2018 21:55:00 17.7 C 94 % 16.72 C
1993 27-05-2018 22:00:00 17.7 C 93 % 16.55 C
1994 27-05-2018 22:05:00 17.6 C 94 % 16.62 C
1995 27-05-2018 22:10:00 17.6 C 94 % 16.62 C
1996 27-05-2018 22:15:00 17.6 C 94 % 16.62 C
1997 27-05-2018 22:20:00 17.5 C 94 % 16.52 C
1998 27-05-2018 22:25:00 17.4 C 94 % 16.42 C
1999 27-05-2018 22:30:00 17.4 C 94 % 16.42 C
2000 27-05-2018 22:35:00 17.4 C 94 % 16.42 C
Sensor: Nr:Datum:Temp:Feuchte:Taupunkt:
Aussen-T/F 2001 27-05-2018 22:40:00 17.3 C 94 % 16.33 C
2002 27-05-2018 22:45:00 17.2 C 94 % 16.23 C
2003 27-05-2018 22:50:00 17.1 C 94 % 16.13 C
2004 27-05-2018 22:55:00 17.1 C 94 % 16.13 C
2005 27-05-2018 23:00:00 17 C 94 % 16.03 C
2006 27-05-2018 23:05:00 16.9 C 94 % 15.93 C
2007 27-05-2018 23:10:00 16.9 C 94 % 15.93 C
2008 27-05-2018 23:15:00 16.9 C 94 % 15.93 C
2009 27-05-2018 23:20:00 16.9 C 94 % 15.93 C
2010 27-05-2018 23:25:00 16.8 C 94 % 15.83 C
2011 27-05-2018 23:30:00 16.8 C 94 % 15.83 C
2012 27-05-2018 23:35:00 16.7 C 94 % 15.73 C
2013 27-05-2018 23:40:00 16.7 C 94 % 15.73 C
2014 27-05-2018 23:45:00 16.6 C 94 % 15.63 C
2015 27-05-2018 23:50:00 16.5 C 94 % 15.53 C
2016 27-05-2018 23:55:00 16.4 C 94 % 15.43 C

Legende:
   Min
   Max


Maximal/Minimal-Werte vom 21.05.2018 - 27.05.2018

Sensor Min Max Avg
Temp
(Aussen-T/F)
11.2 °C
21-05-2018  03:50:00
29.6 °C
26-05-2018  16:55:00
18.55 °C
Feuchte
(Aussen-T/F)
44 %
26-05-2018  17:20:00
97 %
23-05-2018  06:55:00
82.19 %
Taupunkt
(Aussen-T/F)
10.11 C
21-05-2018  06:10:00
20.17 C
27-05-2018  13:45:00
15.12 C

Die Daten stammen von einer Davis Vantage Pro 2 Wetter-Station und werden unter Linux mit der Software wview2wettercgi und aufbereitet. Alle Angaben erfolgen ohne Gewähr für ihre Vollständigkeit oder Richtigkeit.
Kontakt: Rainer Krienke krienke@uni-koblenz.de . Meine Webseiten an der Uni Koblenz oder privat.
Version: $Revision: 0.78 $